<?xml version="1.0" encoding="UTF-8" standalone="no" ?>
<gpx xmlns="http://www.topografix.com/GPX/1/1" xmlns:xsi="http://www.w3.org/2001/XMLSchema-instance" xsi:schemaLocation="http://www.topografix.com/GPX/1/1 http://www.topografix.com/GPX/1/1/gpx.xsd" version="1.1" creator="VisuGPX - https://www.visugpx.com">
  <metadata>
    <name>Ile Réunion-Petite ravine par Dassy</name>
    <desc><![CDATA[Une agréable randonnée qui sort des sentiers battus, qui nous fait faire une boucle du chemin de la petite ravine à Bras de Pontho, dans les gorges du bras de la Plaine jusqu\'au pont de la Liane, sortie par le Dassy et retour au point de départ par Bras de Pontho. Le bras de la Plaine est le seul bras de rivière à la Réunion que l\'on peut parcourir entièrement à pied de st Louis jusqu\'a grand Bassin.]]></desc>
  </metadata>
  <wpt lat="-21.23634" lon="55.49461">
    <ele>372.63391113281</ele>
    <name><![CDATA[001]]></name>
    <desc><![CDATA[26-DEC-12 8:39:24]]></desc>
    <cmt><![CDATA[26-DEC-12 8:39:24]]></cmt>
  </wpt>
  <wpt lat="-21.23638" lon="55.48852">
    <ele>320.24243164062</ele>
    <name><![CDATA[002]]></name>
    <desc><![CDATA[26-DEC-12 8:53:24]]></desc>
    <cmt><![CDATA[26-DEC-12 8:53:24]]></cmt>
  </wpt>
  <trk>
    <name><![CDATA[tour petite ravine-dassy]]></name>
    <trkseg>
      <trkpt lat="-21.23656" lon="55.49964">
        <ele>729.77783203125</ele>
        <time>2012-12-26T03:43:04Z</time>
      </trkpt>
      <trkpt lat="-21.23662" lon="55.49967">
        <ele>733.62329101562</ele>
        <time>2012-12-26T03:43:19Z</time>
      </trkpt>
      <trkpt lat="-21.23661" lon="55.49967">
        <ele>736.98779296875</ele>
        <time>2012-12-26T03:43:23Z</time>
      </trkpt>
      <trkpt lat="-21.23662" lon="55.49968">
        <ele>740.3525390625</ele>
        <time>2012-12-26T03:43:28Z</time>
      </trkpt>
      <trkpt lat="-21.23662" lon="55.49967">
        <ele>743.71704101562</ele>
        <time>2012-12-26T03:43:33Z</time>
      </trkpt>
      <trkpt lat="-21.23662" lon="55.49967">
        <ele>744.19775390625</ele>
        <time>2012-12-26T03:43:35Z</time>
      </trkpt>
      <trkpt lat="-21.23663" lon="55.49966">
        <ele>747.56225585938</ele>
        <time>2012-12-26T03:43:43Z</time>
      </trkpt>
      <trkpt lat="-21.23662" lon="55.49967">
        <ele>750.92700195312</ele>
        <time>2012-12-26T03:43:52Z</time>
      </trkpt>
      <trkpt lat="-21.23661" lon="55.4997">
        <ele>753.81103515625</ele>
        <time>2012-12-26T03:44:07Z</time>
      </trkpt>
      <trkpt lat="-21.23659" lon="55.49971">
        <ele>754.29174804688</ele>
        <time>2012-12-26T03:44:08Z</time>
      </trkpt>
      <trkpt lat="-21.23658" lon="55.49975">
        <ele>757.65625</ele>
        <time>2012-12-26T03:44:22Z</time>
      </trkpt>
      <trkpt lat="-21.23658" lon="55.49976">
        <ele>757.65625</ele>
        <time>2012-12-26T03:44:23Z</time>
      </trkpt>
      <trkpt lat="-21.23653" lon="55.49981">
        <ele>760.05932617188</ele>
        <time>2012-12-26T03:44:37Z</time>
      </trkpt>
      <trkpt lat="-21.23653" lon="55.49982">
        <ele>759.57885742188</ele>
        <time>2012-12-26T03:44:38Z</time>
      </trkpt>
      <trkpt lat="-21.2365" lon="55.49986">
        <ele>760.05932617188</ele>
        <time>2012-12-26T03:44:42Z</time>
      </trkpt>
      <trkpt lat="-21.23639" lon="55.50003">
        <ele>763.42407226562</ele>
        <time>2012-12-26T03:44:56Z</time>
      </trkpt>
      <trkpt lat="-21.23638" lon="55.50004">
        <ele>762.943359375</ele>
        <time>2012-12-26T03:44:57Z</time>
      </trkpt>
      <trkpt lat="-21.23619" lon="55.50024">
        <ele>765.82763671875</ele>
        <time>2012-12-26T03:45:16Z</time>
      </trkpt>
      <trkpt lat="-21.23612" lon="55.50036">
        <ele>766.30810546875</ele>
        <time>2012-12-26T03:45:25Z</time>
      </trkpt>
      <trkpt lat="-21.23606" lon="55.50046">
        <ele>768.23071289062</ele>
        <time>2012-12-26T03:45:33Z</time>
      </trkpt>
      <trkpt lat="-21.23607" lon="55.50049">
        <ele>768.23071289062</ele>
        <time>2012-12-26T03:45:36Z</time>
      </trkpt>
      <trkpt lat="-21.23606" lon="55.50074">
        <ele>771.11474609375</ele>
        <time>2012-12-26T03:45:52Z</time>
      </trkpt>
      <trkpt lat="-21.23603" lon="55.50091">
        <ele>773.03735351562</ele>
        <time>2012-12-26T03:46:04Z</time>
      </trkpt>
      <trkpt lat="-21.23592" lon="55.50097">
        <ele>774.9599609375</ele>
        <time>2012-12-26T03:46:16Z</time>
      </trkpt>
      <trkpt lat="-21.23578" lon="55.50092">
        <ele>776.40185546875</ele>
        <time>2012-12-26T03:46:28Z</time>
      </trkpt>
      <trkpt lat="-21.2357" lon="55.50093">
        <ele>775.92114257812</ele>
        <time>2012-12-26T03:46:32Z</time>
      </trkpt>
      <trkpt lat="-21.23564" lon="55.50097">
        <ele>775.92114257812</ele>
        <time>2012-12-26T03:46:36Z</time>
      </trkpt>
      <trkpt lat="-21.23561" lon="55.50099">
        <ele>775.92114257812</ele>
        <time>2012-12-26T03:46:40Z</time>
      </trkpt>
      <trkpt lat="-21.23557" lon="55.50101">
        <ele>775.4404296875</ele>
        <time>2012-12-26T03:46:45Z</time>
      </trkpt>
      <trkpt lat="-21.23546" lon="55.50096">
        <ele>775.4404296875</ele>
        <time>2012-12-26T03:46:54Z</time>
      </trkpt>
      <trkpt lat="-21.2352" lon="55.50082">
        <ele>774.9599609375</ele>
        <time>2012-12-26T03:47:12Z</time>
      </trkpt>
      <trkpt lat="-21.23496" lon="55.50065">
        <ele>773.99853515625</ele>
        <time>2012-12-26T03:47:32Z</time>
      </trkpt>
      <trkpt lat="-21.2349" lon="55.50061">
        <ele>773.99853515625</ele>
        <time>2012-12-26T03:47:36Z</time>
      </trkpt>
      <trkpt lat="-21.23486" lon="55.50059">
        <ele>773.99853515625</ele>
        <time>2012-12-26T03:47:39Z</time>
      </trkpt>
      <trkpt lat="-21.2347" lon="55.5005">
        <ele>773.51806640625</ele>
        <time>2012-12-26T03:47:53Z</time>
      </trkpt>
      <trkpt lat="-21.2347" lon="55.50051">
        <ele>773.51806640625</ele>
        <time>2012-12-26T03:47:54Z</time>
      </trkpt>
      <trkpt lat="-21.23464" lon="55.50047">
        <ele>772.556640625</ele>
        <time>2012-12-26T03:47:59Z</time>
      </trkpt>
      <trkpt lat="-21.23458" lon="55.50045">
        <ele>772.07592773438</ele>
        <time>2012-12-26T03:48:04Z</time>
      </trkpt>
      <trkpt lat="-21.23446" lon="55.50037">
        <ele>770.1533203125</ele>
        <time>2012-12-26T03:48:13Z</time>
      </trkpt>
      <trkpt lat="-21.23444" lon="55.50034">
        <ele>770.1533203125</ele>
        <time>2012-12-26T03:48:15Z</time>
      </trkpt>
      <trkpt lat="-21.23435" lon="55.50029">
        <ele>768.23071289062</ele>
        <time>2012-12-26T03:48:22Z</time>
      </trkpt>
      <trkpt lat="-21.23429" lon="55.50023">
        <ele>766.78881835938</ele>
        <time>2012-12-26T03:48:30Z</time>
      </trkpt>
      <trkpt lat="-21.23428" lon="55.50021">
        <ele>765.34692382812</ele>
        <time>2012-12-26T03:48:32Z</time>
      </trkpt>
      <trkpt lat="-21.23422" lon="55.50013">
        <ele>765.34692382812</ele>
        <time>2012-12-26T03:48:39Z</time>
      </trkpt>
      <trkpt lat="-21.23419" lon="55.50009">
        <ele>764.8662109375</ele>
        <time>2012-12-26T03:48:41Z</time>
      </trkpt>
      <trkpt lat="-21.23405" lon="55.50005">
        <ele>764.8662109375</ele>
        <time>2012-12-26T03:48:51Z</time>
      </trkpt>
      <trkpt lat="-21.23401" lon="55.5">
        <ele>763.42407226562</ele>
        <time>2012-12-26T03:49:03Z</time>
      </trkpt>
      <trkpt lat="-21.23401" lon="55.49998">
        <ele>761.50146484375</ele>
        <time>2012-12-26T03:49:08Z</time>
      </trkpt>
      <trkpt lat="-21.23401" lon="55.49987">
        <ele>759.09814453125</ele>
        <time>2012-12-26T03:49:15Z</time>
      </trkpt>
      <trkpt lat="-21.23396" lon="55.49977">
        <ele>756.21411132812</ele>
        <time>2012-12-26T03:49:26Z</time>
      </trkpt>
      <trkpt lat="-21.23389" lon="55.49976">
        <ele>754.77221679688</ele>
        <time>2012-12-26T03:49:33Z</time>
      </trkpt>
      <trkpt lat="-21.2338" lon="55.49971">
        <ele>751.40771484375</ele>
        <time>2012-12-26T03:49:44Z</time>
      </trkpt>
      <trkpt lat="-21.2338" lon="55.49971">
        <ele>751.40771484375</ele>
        <time>2012-12-26T03:49:45Z</time>
      </trkpt>
      <trkpt lat="-21.23368" lon="55.49969">
        <ele>749.00439453125</ele>
        <time>2012-12-26T03:49:54Z</time>
      </trkpt>
      <trkpt lat="-21.23367" lon="55.49969">
        <ele>749.00439453125</ele>
        <time>2012-12-26T03:49:55Z</time>
      </trkpt>
      <trkpt lat="-21.2335" lon="55.49965">
        <ele>745.6396484375</ele>
        <time>2012-12-26T03:50:07Z</time>
      </trkpt>
      <trkpt lat="-21.23343" lon="55.49955">
        <ele>741.79443359375</ele>
        <time>2012-12-26T03:50:23Z</time>
      </trkpt>
      <trkpt lat="-21.23338" lon="55.49951">
        <ele>740.8330078125</ele>
        <time>2012-12-26T03:50:30Z</time>
      </trkpt>
      <trkpt lat="-21.23325" lon="55.4993">
        <ele>736.50732421875</ele>
        <time>2012-12-26T03:50:50Z</time>
      </trkpt>
      <trkpt lat="-21.23325" lon="55.49929">
        <ele>736.50732421875</ele>
        <time>2012-12-26T03:50:51Z</time>
      </trkpt>
      <trkpt lat="-21.23319" lon="55.49919">
        <ele>733.62329101562</ele>
        <time>2012-12-26T03:51:01Z</time>
      </trkpt>
      <trkpt lat="-21.23322" lon="55.49925">
        <ele>731.70043945312</ele>
        <time>2012-12-26T03:51:05Z</time>
      </trkpt>
      <trkpt lat="-21.23323" lon="55.49931">
        <ele>730.7392578125</ele>
        <time>2012-12-26T03:51:10Z</time>
      </trkpt>
      <trkpt lat="-21.2334" lon="55.49923">
        <ele>726.89404296875</ele>
        <time>2012-12-26T03:51:21Z</time>
      </trkpt>
      <trkpt lat="-21.23341" lon="55.49923">
        <ele>726.89404296875</ele>
        <time>2012-12-26T03:51:22Z</time>
      </trkpt>
      <trkpt lat="-21.23339" lon="55.4992">
        <ele>724.97143554688</ele>
        <time>2012-12-26T03:51:27Z</time>
      </trkpt>
      <trkpt lat="-21.23333" lon="55.49916">
        <ele>723.52954101562</ele>
        <time>2012-12-26T03:51:31Z</time>
      </trkpt>
      <trkpt lat="-21.2332" lon="55.49918">
        <ele>721.60668945312</ele>
        <time>2012-12-26T03:51:37Z</time>
      </trkpt>
      <trkpt lat="-21.23303" lon="55.49918">
        <ele>719.68432617188</ele>
        <time>2012-12-26T03:51:43Z</time>
      </trkpt>
      <trkpt lat="-21.23299" lon="55.49911">
        <ele>716.80029296875</ele>
        <time>2012-12-26T03:51:51Z</time>
      </trkpt>
      <trkpt lat="-21.23301" lon="55.49907">
        <ele>715.8388671875</ele>
        <time>2012-12-26T03:51:53Z</time>
      </trkpt>
      <trkpt lat="-21.23315" lon="55.49886">
        <ele>713.435546875</ele>
        <time>2012-12-26T03:52:04Z</time>
      </trkpt>
      <trkpt lat="-21.23309" lon="55.49873">
        <ele>710.55151367188</ele>
        <time>2012-12-26T03:52:19Z</time>
      </trkpt>
      <trkpt lat="-21.23306" lon="55.49873">
        <ele>709.59033203125</ele>
        <time>2012-12-26T03:52:24Z</time>
      </trkpt>
      <trkpt lat="-21.23295" lon="55.49874">
        <ele>708.1484375</ele>
        <time>2012-12-26T03:52:27Z</time>
      </trkpt>
      <trkpt lat="-21.23294" lon="55.49873">
        <ele>707.18701171875</ele>
        <time>2012-12-26T03:52:28Z</time>
      </trkpt>
      <trkpt lat="-21.233" lon="55.49866">
        <ele>705.26440429688</ele>
        <time>2012-12-26T03:52:34Z</time>
      </trkpt>
      <trkpt lat="-21.23304" lon="55.49865">
        <ele>704.30322265625</ele>
        <time>2012-12-26T03:52:39Z</time>
      </trkpt>
      <trkpt lat="-21.23314" lon="55.4987">
        <ele>701.89990234375</ele>
        <time>2012-12-26T03:52:48Z</time>
      </trkpt>
      <trkpt lat="-21.23324" lon="55.49871">
        <ele>698.53491210938</ele>
        <time>2012-12-26T03:53:00Z</time>
      </trkpt>
      <trkpt lat="-21.23329" lon="55.49872">
        <ele>695.65112304688</ele>
        <time>2012-12-26T03:53:11Z</time>
      </trkpt>
      <trkpt lat="-21.23335" lon="55.4987">
        <ele>694.20922851562</ele>
        <time>2012-12-26T03:53:17Z</time>
      </trkpt>
      <trkpt lat="-21.23343" lon="55.49875">
        <ele>691.80590820312</ele>
        <time>2012-12-26T03:53:37Z</time>
      </trkpt>
      <trkpt lat="-21.23344" lon="55.49871">
        <ele>688.44140625</ele>
        <time>2012-12-26T03:53:53Z</time>
      </trkpt>
      <trkpt lat="-21.23349" lon="55.49863">
        <ele>685.55737304688</ele>
        <time>2012-12-26T03:54:02Z</time>
      </trkpt>
      <trkpt lat="-21.23352" lon="55.49858">
        <ele>683.15380859375</ele>
        <time>2012-12-26T03:54:09Z</time>
      </trkpt>
      <trkpt lat="-21.23355" lon="55.49852">
        <ele>680.75073242188</ele>
        <time>2012-12-26T03:54:16Z</time>
      </trkpt>
      <trkpt lat="-21.23351" lon="55.49841">
        <ele>677.38623046875</ele>
        <time>2012-12-26T03:54:26Z</time>
      </trkpt>
      <trkpt lat="-21.23336" lon="55.49839">
        <ele>674.021484375</ele>
        <time>2012-12-26T03:54:38Z</time>
      </trkpt>
      <trkpt lat="-21.23332" lon="55.4984">
        <ele>671.1376953125</ele>
        <time>2012-12-26T03:54:45Z</time>
      </trkpt>
      <trkpt lat="-21.23338" lon="55.49841">
        <ele>669.21508789062</ele>
        <time>2012-12-26T03:55:05Z</time>
      </trkpt>
      <trkpt lat="-21.23341" lon="55.4984">
        <ele>666.33081054688</ele>
        <time>2012-12-26T03:55:15Z</time>
      </trkpt>
      <trkpt lat="-21.23341" lon="55.49839">
        <ele>666.33081054688</ele>
        <time>2012-12-26T03:55:16Z</time>
      </trkpt>
      <trkpt lat="-21.2334" lon="55.49837">
        <ele>662.96630859375</ele>
        <time>2012-12-26T03:55:22Z</time>
      </trkpt>
      <trkpt lat="-21.2334" lon="55.49836">
        <ele>662.96630859375</ele>
        <time>2012-12-26T03:55:23Z</time>
      </trkpt>
      <trkpt lat="-21.23343" lon="55.49819">
        <ele>659.60180664062</ele>
        <time>2012-12-26T03:55:38Z</time>
      </trkpt>
      <trkpt lat="-21.23349" lon="55.49819">
        <ele>659.12109375</ele>
        <time>2012-12-26T03:55:44Z</time>
      </trkpt>
      <trkpt lat="-21.23351" lon="55.49819">
        <ele>654.79516601562</ele>
        <time>2012-12-26T03:55:54Z</time>
      </trkpt>
      <trkpt lat="-21.23343" lon="55.49824">
        <ele>653.35327148438</ele>
        <time>2012-12-26T03:55:58Z</time>
      </trkpt>
      <trkpt lat="-21.23333" lon="55.49817">
        <ele>650.46923828125</ele>
        <time>2012-12-26T03:56:07Z</time>
      </trkpt>
      <trkpt lat="-21.2333" lon="55.49811">
        <ele>647.1044921875</ele>
        <time>2012-12-26T03:56:15Z</time>
      </trkpt>
      <trkpt lat="-21.23324" lon="55.49801">
        <ele>645.18188476562</ele>
        <time>2012-12-26T03:56:25Z</time>
      </trkpt>
      <trkpt lat="-21.2332" lon="55.498">
        <ele>644.220703125</ele>
        <time>2012-12-26T03:56:28Z</time>
      </trkpt>
      <trkpt lat="-21.2332" lon="55.498">
        <ele>643.25927734375</ele>
        <time>2012-12-26T03:56:29Z</time>
      </trkpt>
      <trkpt lat="-21.23312" lon="55.498">
        <ele>640.85595703125</ele>
        <time>2012-12-26T03:56:39Z</time>
      </trkpt>
      <trkpt lat="-21.23313" lon="55.49801">
        <ele>639.4140625</ele>
        <time>2012-12-26T03:56:44Z</time>
      </trkpt>
      <trkpt lat="-21.23318" lon="55.498">
        <ele>637.49145507812</ele>
        <time>2012-12-26T03:56:52Z</time>
      </trkpt>
      <trkpt lat="-21.23325" lon="55.49799">
        <ele>635.56860351562</ele>
        <time>2012-12-26T03:56:55Z</time>
      </trkpt>
      <trkpt lat="-21.23338" lon="55.49795">
        <ele>633.16528320312</ele>
        <time>2012-12-26T03:57:06Z</time>
      </trkpt>
      <trkpt lat="-21.23343" lon="55.4979">
        <ele>631.24291992188</ele>
        <time>2012-12-26T03:57:13Z</time>
      </trkpt>
      <trkpt lat="-21.23347" lon="55.49789">
        <ele>628.35888671875</ele>
        <time>2012-12-26T03:57:24Z</time>
      </trkpt>
      <trkpt lat="-21.23338" lon="55.49792">
        <ele>624.513671875</ele>
        <time>2012-12-26T03:57:33Z</time>
      </trkpt>
      <trkpt lat="-21.23337" lon="55.49792">
        <ele>624.513671875</ele>
        <time>2012-12-26T03:57:34Z</time>
      </trkpt>
      <trkpt lat="-21.23333" lon="55.49793">
        <ele>621.62963867188</ele>
        <time>2012-12-26T03:57:45Z</time>
      </trkpt>
      <trkpt lat="-21.23333" lon="55.4979">
        <ele>617.7841796875</ele>
        <time>2012-12-26T03:57:54Z</time>
      </trkpt>
      <trkpt lat="-21.23329" lon="55.49789">
        <ele>616.34228515625</ele>
        <time>2012-12-26T03:58:02Z</time>
      </trkpt>
      <trkpt lat="-21.23328" lon="55.49789">
        <ele>614.900390625</ele>
        <time>2012-12-26T03:58:05Z</time>
      </trkpt>
      <trkpt lat="-21.23322" lon="55.49781">
        <ele>611.53588867188</ele>
        <time>2012-12-26T03:58:15Z</time>
      </trkpt>
      <trkpt lat="-21.23316" lon="55.49776">
        <ele>608.17138671875</ele>
        <time>2012-12-26T03:58:25Z</time>
      </trkpt>
      <trkpt lat="-21.23321" lon="55.49771">
        <ele>605.76806640625</ele>
        <time>2012-12-26T03:58:33Z</time>
      </trkpt>
      <trkpt lat="-21.23324" lon="55.49766">
        <ele>602.8837890625</ele>
        <time>2012-12-26T03:58:39Z</time>
      </trkpt>
      <trkpt lat="-21.23323" lon="55.49766">
        <ele>602.8837890625</ele>
        <time>2012-12-26T03:58:40Z</time>
      </trkpt>
      <trkpt lat="-21.23318" lon="55.49765">
        <ele>600.48071289062</ele>
        <time>2012-12-26T03:58:46Z</time>
      </trkpt>
      <trkpt lat="-21.2331" lon="55.49763">
        <ele>597.11596679688</ele>
        <time>2012-12-26T03:58:55Z</time>
      </trkpt>
      <trkpt lat="-21.23306" lon="55.4976">
        <ele>594.71264648438</ele>
        <time>2012-12-26T03:59:03Z</time>
      </trkpt>
      <trkpt lat="-21.23301" lon="55.49754">
        <ele>592.3095703125</ele>
        <time>2012-12-26T03:59:10Z</time>
      </trkpt>
      <trkpt lat="-21.23298" lon="55.49754">
        <ele>592.3095703125</ele>
        <time>2012-12-26T03:59:13Z</time>
      </trkpt>
      <trkpt lat="-21.23286" lon="55.4975">
        <ele>588.46435546875</ele>
        <time>2012-12-26T03:59:22Z</time>
      </trkpt>
      <trkpt lat="-21.23273" lon="55.49764">
        <ele>587.02197265625</ele>
        <time>2012-12-26T03:59:33Z</time>
      </trkpt>
      <trkpt lat="-21.23267" lon="55.49761">
        <ele>586.54150390625</ele>
        <time>2012-12-26T03:59:37Z</time>
      </trkpt>
      <trkpt lat="-21.23264" lon="55.49758">
        <ele>585.580078125</ele>
        <time>2012-12-26T03:59:39Z</time>
      </trkpt>
      <trkpt lat="-21.23264" lon="55.49757">
        <ele>585.580078125</ele>
        <time>2012-12-26T03:59:40Z</time>
      </trkpt>
      <trkpt lat="-21.23266" lon="55.4976">
        <ele>584.13818359375</ele>
        <time>2012-12-26T03:59:42Z</time>
      </trkpt>
      <trkpt lat="-21.23272" lon="55.49758">
        <ele>583.1767578125</ele>
        <time>2012-12-26T03:59:45Z</time>
      </trkpt>
      <trkpt lat="-21.23283" lon="55.49755">
        <ele>580.29296875</ele>
        <time>2012-12-26T03:59:57Z</time>
      </trkpt>
      <trkpt lat="-21.23281" lon="55.49754">
        <ele>579.81225585938</ele>
        <time>2012-12-26T03:59:59Z</time>
      </trkpt>
      <trkpt lat="-21.23274" lon="55.49754">
        <ele>576.92846679688</ele>
        <time>2012-12-26T04:00:09Z</time>
      </trkpt>
      <trkpt lat="-21.23271" lon="55.49769">
        <ele>575.005859375</ele>
        <time>2012-12-26T04:00:18Z</time>
      </trkpt>
      <trkpt lat="-21.23264" lon="55.49767">
        <ele>573.08325195312</ele>
        <time>2012-12-26T04:00:23Z</time>
      </trkpt>
      <trkpt lat="-21.23257" lon="55.49767">
        <ele>571.64086914062</ele>
        <time>2012-12-26T04:00:33Z</time>
      </trkpt>
      <trkpt lat="-21.23251" lon="55.49767">
        <ele>569.71850585938</ele>
        <time>2012-12-26T04:00:38Z</time>
      </trkpt>
      <trkpt lat="-21.23241" lon="55.49773">
        <ele>567.31518554688</ele>
        <time>2012-12-26T04:00:48Z</time>
      </trkpt>
      <trkpt lat="-21.23235" lon="55.49775">
        <ele>566.83447265625</ele>
        <time>2012-12-26T04:00:54Z</time>
      </trkpt>
      <trkpt lat="-21.23216" lon="55.49779">
        <ele>563.46997070312</ele>
        <time>2012-12-26T04:01:10Z</time>
      </trkpt>
      <trkpt lat="-21.232" lon="55.49787">
        <ele>560.5859375</ele>
        <time>2012-12-26T04:01:23Z</time>
      </trkpt>
      <trkpt lat="-21.23194" lon="55.49792">
        <ele>559.14404296875</ele>
        <time>2012-12-26T04:01:28Z</time>
      </trkpt>
      <trkpt lat="-21.23188" lon="55.49797">
        <ele>557.22143554688</ele>
        <time>2012-12-26T04:01:38Z</time>
      </trkpt>
      <trkpt lat="-21.23183" lon="55.49793">
        <ele>553.3759765625</ele>
        <time>2012-12-26T04:01:50Z</time>
      </trkpt>
      <trkpt lat="-21.23185" lon="55.49792">
        <ele>552.89526367188</ele>
        <time>2012-12-26T04:01:52Z</time>
      </trkpt>
      <trkpt lat="-21.23185" lon="55.49791">
        <ele>551.93408203125</ele>
        <time>2012-12-26T04:01:53Z</time>
      </trkpt>
      <trkpt lat="-21.23195" lon="55.49794">
        <ele>548.5693359375</ele>
        <time>2012-12-26T04:02:05Z</time>
      </trkpt>
      <trkpt lat="-21.23195" lon="55.49793">
        <ele>548.5693359375</ele>
        <time>2012-12-26T04:02:06Z</time>
      </trkpt>
      <trkpt lat="-21.23189" lon="55.49784">
        <ele>544.72424316406</ele>
        <time>2012-12-26T04:02:16Z</time>
      </trkpt>
      <trkpt lat="-21.2319" lon="55.49783">
        <ele>544.72424316406</ele>
        <time>2012-12-26T04:02:17Z</time>
      </trkpt>
      <trkpt lat="-21.23203" lon="55.49785">
        <ele>541.35949707031</ele>
        <time>2012-12-26T04:02:28Z</time>
      </trkpt>
      <trkpt lat="-21.23203" lon="55.49778">
        <ele>540.87890625</ele>
        <time>2012-12-26T04:02:32Z</time>
      </trkpt>
      <trkpt lat="-21.23208" lon="55.49775">
        <ele>538.95629882812</ele>
        <time>2012-12-26T04:02:36Z</time>
      </trkpt>
      <trkpt lat="-21.23204" lon="55.49773">
        <ele>537.99499511719</ele>
        <time>2012-12-26T04:02:39Z</time>
      </trkpt>
      <trkpt lat="-21.23201" lon="55.49772">
        <ele>537.51428222656</ele>
        <time>2012-12-26T04:02:42Z</time>
      </trkpt>
      <trkpt lat="-21.23193" lon="55.4977">
        <ele>535.11096191406</ele>
        <time>2012-12-26T04:02:50Z</time>
      </trkpt>
      <trkpt lat="-21.2319" lon="55.49769">
        <ele>534.14965820312</ele>
        <time>2012-12-26T04:02:53Z</time>
      </trkpt>
      <trkpt lat="-21.23184" lon="55.49775">
        <ele>531.74633789062</ele>
        <time>2012-12-26T04:03:00Z</time>
      </trkpt>
      <trkpt lat="-21.23176" lon="55.49777">
        <ele>529.34313964844</ele>
        <time>2012-12-26T04:03:11Z</time>
      </trkpt>
      <trkpt lat="-21.2317" lon="55.49769">
        <ele>525.97839355469</ele>
        <time>2012-12-26T04:03:25Z</time>
      </trkpt>
      <trkpt lat="-21.23178" lon="55.49766">
        <ele>523.5751953125</ele>
        <time>2012-12-26T04:03:34Z</time>
      </trkpt>
      <trkpt lat="-21.23189" lon="55.49767">
        <ele>521.65258789062</ele>
        <time>2012-12-26T04:03:42Z</time>
      </trkpt>
      <trkpt lat="-21.2319" lon="55.49762">
        <ele>518.28784179688</ele>
        <time>2012-12-26T04:03:51Z</time>
      </trkpt>
      <trkpt lat="-21.2318" lon="55.49768">
        <ele>514.92333984375</ele>
        <time>2012-12-26T04:04:03Z</time>
      </trkpt>
      <trkpt lat="-21.23177" lon="55.49769">
        <ele>513.4814453125</ele>
        <time>2012-12-26T04:04:06Z</time>
      </trkpt>
      <trkpt lat="-21.23166" lon="55.49773">
        <ele>510.11669921875</ele>
        <time>2012-12-26T04:04:19Z</time>
      </trkpt>
      <trkpt lat="-21.23152" lon="55.49772">
        <ele>508.67468261719</ele>
        <time>2012-12-26T04:04:39Z</time>
      </trkpt>
      <trkpt lat="-21.23149" lon="55.49771">
        <ele>510.11669921875</ele>
        <time>2012-12-26T04:04:41Z</time>
      </trkpt>
      <trkpt lat="-21.23145" lon="55.4977">
        <ele>510.11669921875</ele>
        <time>2012-12-26T04:04:43Z</time>
      </trkpt>
      <trkpt lat="-21.2314" lon="55.4977">
        <ele>509.15539550781</ele>
        <time>2012-12-26T04:04:45Z</time>
      </trkpt>
      <trkpt lat="-21.23137" lon="55.49776">
        <ele>510.11669921875</ele>
        <time>2012-12-26T04:04:47Z</time>
      </trkpt>
      <trkpt lat="-21.23132" lon="55.49782">
        <ele>508.67468261719</ele>
        <time>2012-12-26T04:05:08Z</time>
      </trkpt>
      <trkpt lat="-21.2313" lon="55.49785">
        <ele>507.71350097656</ele>
        <time>2012-12-26T04:06:23Z</time>
      </trkpt>
      <trkpt lat="-21.23133" lon="55.49785">
        <ele>504.34887695312</ele>
        <time>2012-12-26T04:06:45Z</time>
      </trkpt>
      <trkpt lat="-21.23134" lon="55.49784">
        <ele>504.34887695312</ele>
        <time>2012-12-26T04:06:46Z</time>
      </trkpt>
      <trkpt lat="-21.23135" lon="55.4977">
        <ele>501.46484375</ele>
        <time>2012-12-26T04:06:56Z</time>
      </trkpt>
      <trkpt lat="-21.23126" lon="55.49776">
        <ele>498.10034179688</ele>
        <time>2012-12-26T04:07:06Z</time>
      </trkpt>
      <trkpt lat="-21.23125" lon="55.49776">
        <ele>498.10034179688</ele>
        <time>2012-12-26T04:07:07Z</time>
      </trkpt>
      <trkpt lat="-21.23121" lon="55.49777">
        <ele>496.65832519531</ele>
        <time>2012-12-26T04:07:09Z</time>
      </trkpt>
      <trkpt lat="-21.23112" lon="55.49772">
        <ele>493.77429199219</ele>
        <time>2012-12-26T04:07:17Z</time>
      </trkpt>
      <trkpt lat="-21.23098" lon="55.49765">
        <ele>489.92907714844</ele>
        <time>2012-12-26T04:07:29Z</time>
      </trkpt>
      <trkpt lat="-21.23096" lon="55.49765">
        <ele>489.92907714844</ele>
        <time>2012-12-26T04:07:30Z</time>
      </trkpt>
      <trkpt lat="-21.23084" lon="55.49769">
        <ele>488.00646972656</ele>
        <time>2012-12-26T04:07:37Z</time>
      </trkpt>
      <trkpt lat="-21.23083" lon="55.49768">
        <ele>488.48718261719</ele>
        <time>2012-12-26T04:07:38Z</time>
      </trkpt>
      <trkpt lat="-21.23075" lon="55.49773">
        <ele>487.04504394531</ele>
        <time>2012-12-26T04:07:43Z</time>
      </trkpt>
      <trkpt lat="-21.23061" lon="55.49776">
        <ele>484.1611328125</ele>
        <time>2012-12-26T04:07:51Z</time>
      </trkpt>
      <trkpt lat="-21.23054" lon="55.49778">
        <ele>482.23852539062</ele>
        <time>2012-12-26T04:07:58Z</time>
      </trkpt>
      <trkpt lat="-21.23051" lon="55.49771">
        <ele>478.87390136719</ele>
        <time>2012-12-26T04:08:08Z</time>
      </trkpt>
      <trkpt lat="-21.23056" lon="55.49762">
        <ele>475.50927734375</ele>
        <time>2012-12-26T04:08:17Z</time>
      </trkpt>
      <trkpt lat="-21.23058" lon="55.49761">
        <ele>474.06726074219</ele>
        <time>2012-12-26T04:08:21Z</time>
      </trkpt>
      <trkpt lat="-21.23063" lon="55.49755">
        <ele>471.66394042969</ele>
        <time>2012-12-26T04:08:26Z</time>
      </trkpt>
      <trkpt lat="-21.23075" lon="55.4975">
        <ele>468.29931640625</ele>
        <time>2012-12-26T04:08:36Z</time>
      </trkpt>
      <trkpt lat="-21.23072" lon="55.49743">
        <ele>468.29931640625</ele>
        <time>2012-12-26T04:08:37Z</time>
      </trkpt>
      <trkpt lat="-21.23072" lon="55.4974">
        <ele>465.89611816406</ele>
        <time>2012-12-26T04:08:42Z</time>
      </trkpt>
      <trkpt lat="-21.23081" lon="55.49737">
        <ele>463.97338867188</ele>
        <time>2012-12-26T04:08:48Z</time>
      </trkpt>
      <trkpt lat="-21.2308" lon="55.49742">
        <ele>462.05078125</ele>
        <time>2012-12-26T04:09:09Z</time>
      </trkpt>
      <trkpt lat="-21.23079" lon="55.49741">
        <ele>460.12817382812</ele>
        <time>2012-12-26T04:09:21Z</time>
      </trkpt>
      <trkpt lat="-21.23083" lon="55.49727">
        <ele>456.76354980469</ele>
        <time>2012-12-26T04:09:32Z</time>
      </trkpt>
      <trkpt lat="-21.23082" lon="55.49722">
        <ele>456.28295898438</ele>
        <time>2012-12-26T04:09:37Z</time>
      </trkpt>
      <trkpt lat="-21.23084" lon="55.49717">
        <ele>454.8408203125</ele>
        <time>2012-12-26T04:09:49Z</time>
      </trkpt>
      <trkpt lat="-21.23084" lon="55.49716">
        <ele>454.8408203125</ele>
        <time>2012-12-26T04:09:50Z</time>
      </trkpt>
      <trkpt lat="-21.23087" lon="55.49712">
        <ele>453.39892578125</ele>
        <time>2012-12-26T04:09:55Z</time>
      </trkpt>
      <trkpt lat="-21.23087" lon="55.49703">
        <ele>451.95703125</ele>
        <time>2012-12-26T04:10:01Z</time>
      </trkpt>
      <trkpt lat="-21.23085" lon="55.49698">
        <ele>451.47631835938</ele>
        <time>2012-12-26T04:10:04Z</time>
      </trkpt>
      <trkpt lat="-21.23082" lon="55.49688">
        <ele>450.03442382812</ele>
        <time>2012-12-26T04:10:15Z</time>
      </trkpt>
      <trkpt lat="-21.23073" lon="55.49692">
        <ele>449.07299804688</ele>
        <time>2012-12-26T04:10:24Z</time>
      </trkpt>
      <trkpt lat="-21.23075" lon="55.49704">
        <ele>447.15026855469</ele>
        <time>2012-12-26T04:10:35Z</time>
      </trkpt>
      <trkpt lat="-21.23084" lon="55.49704">
        <ele>443.30505371094</ele>
        <time>2012-12-26T04:10:43Z</time>
      </trkpt>
      <trkpt lat="-21.23083" lon="55.49699">
        <ele>441.86315917969</ele>
        <time>2012-12-26T04:10:47Z</time>
      </trkpt>
      <trkpt lat="-21.2308" lon="55.49689">
        <ele>441.38244628906</ele>
        <time>2012-12-26T04:10:49Z</time>
      </trkpt>
      <trkpt lat="-21.2309" lon="55.4969">
        <ele>439.9404296875</ele>
        <time>2012-12-26T04:10:52Z</time>
      </trkpt>
      <trkpt lat="-21.23087" lon="55.49687">
        <ele>438.97912597656</ele>
        <time>2012-12-26T04:10:54Z</time>
      </trkpt>
      <trkpt lat="-21.23078" lon="55.49691">
        <ele>437.05651855469</ele>
        <time>2012-12-26T04:11:01Z</time>
      </trkpt>
      <trkpt lat="-21.2307" lon="55.4968">
        <ele>436.09521484375</ele>
        <time>2012-12-26T04:11:05Z</time>
      </trkpt>
      <trkpt lat="-21.23071" lon="55.49676">
        <ele>433.69189453125</ele>
        <time>2012-12-26T04:11:12Z</time>
      </trkpt>
      <trkpt lat="-21.23078" lon="55.49677">
        <ele>430.80798339844</ele>
        <time>2012-12-26T04:11:22Z</time>
      </trkpt>
      <trkpt lat="-21.23081" lon="55.4968">
        <ele>426.96276855469</ele>
        <time>2012-12-26T04:12:09Z</time>
      </trkpt>
      <trkpt lat="-21.23081" lon="55.49669">
        <ele>424.07873535156</ele>
        <time>2012-12-26T04:12:30Z</time>
      </trkpt>
      <trkpt lat="-21.23081" lon="55.49665">
        <ele>420.2333984375</ele>
        <time>2012-12-26T04:12:51Z</time>
      </trkpt>
      <trkpt lat="-21.23083" lon="55.49653">
        <ele>418.31079101562</ele>
        <time>2012-12-26T04:13:23Z</time>
      </trkpt>
      <trkpt lat="-21.23085" lon="55.4965">
        <ele>417.83020019531</ele>
        <time>2012-12-26T04:14:15Z</time>
      </trkpt>
      <trkpt lat="-21.23084" lon="55.49642">
        <ele>414.46545410156</ele>
        <time>2012-12-26T04:14:36Z</time>
      </trkpt>
      <trkpt lat="-21.23087" lon="55.49636">
        <ele>411.58166503906</ele>
        <time>2012-12-26T04:15:07Z</time>
      </trkpt>
      <trkpt lat="-21.23087" lon="55.49636">
        <ele>410.1396484375</ele>
        <time>2012-12-26T04:15:11Z</time>
      </trkpt>
      <trkpt lat="-21.23088" lon="55.49628">
        <ele>407.25561523438</ele>
        <time>2012-12-26T04:15:25Z</time>
      </trkpt>
      <trkpt lat="-21.23094" lon="55.49622">
        <ele>404.85229492188</ele>
        <time>2012-12-26T04:15:57Z</time>
      </trkpt>
      <trkpt lat="-21.23094" lon="55.49619">
        <ele>403.41040039062</ele>
        <time>2012-12-26T04:16:04Z</time>
      </trkpt>
      <trkpt lat="-21.23097" lon="55.49618">
        <ele>402.44909667969</ele>
        <time>2012-12-26T04:16:07Z</time>
      </trkpt>
      <trkpt lat="-21.23101" lon="55.49615">
        <ele>399.08435058594</ele>
        <time>2012-12-26T04:16:23Z</time>
      </trkpt>
      <trkpt lat="-21.23114" lon="55.49613">
        <ele>395.71984863281</ele>
        <time>2012-12-26T04:16:37Z</time>
      </trkpt>
      <trkpt lat="-21.23117" lon="55.49608">
        <ele>392.35534667969</ele>
        <time>2012-12-26T04:16:56Z</time>
      </trkpt>
      <trkpt lat="-21.23118" lon="55.49609">
        <ele>392.8359375</ele>
        <time>2012-12-26T04:16:58Z</time>
      </trkpt>
      <trkpt lat="-21.23121" lon="55.49606">
        <ele>389.47119140625</ele>
        <time>2012-12-26T04:17:10Z</time>
      </trkpt>
      <trkpt lat="-21.23124" lon="55.49601">
        <ele>386.58740234375</ele>
        <time>2012-12-26T04:17:22Z</time>
      </trkpt>
      <trkpt lat="-21.23128" lon="55.49596">
        <ele>383.70324707031</ele>
        <time>2012-12-26T04:17:33Z</time>
      </trkpt>
      <trkpt lat="-21.23128" lon="55.49595">
        <ele>380.33874511719</ele>
        <time>2012-12-26T04:17:44Z</time>
      </trkpt>
      <trkpt lat="-21.23145" lon="55.49584">
        <ele>376.97424316406</ele>
        <time>2012-12-26T04:17:54Z</time>
      </trkpt>
      <trkpt lat="-21.23147" lon="55.49579">
        <ele>374.09008789062</ele>
        <time>2012-12-26T04:18:06Z</time>
      </trkpt>
      <trkpt lat="-21.23148" lon="55.49575">
        <ele>371.20629882812</ele>
        <time>2012-12-26T04:18:19Z</time>
      </trkpt>
      <trkpt lat="-21.23168" lon="55.49583">
        <ele>370.24487304688</ele>
        <time>2012-12-26T04:18:54Z</time>
      </trkpt>
      <trkpt lat="-21.23179" lon="55.49589">
        <ele>369.76428222656</ele>
        <time>2012-12-26T04:19:11Z</time>
      </trkpt>
      <trkpt lat="-21.23176" lon="55.49588">
        <ele>370.7255859375</ele>
        <time>2012-12-26T04:19:35Z</time>
      </trkpt>
      <trkpt lat="-21.23193" lon="55.49591">
        <ele>369.76428222656</ele>
        <time>2012-12-26T04:20:35Z</time>
      </trkpt>
      <trkpt lat="-21.23204" lon="55.49585">
        <ele>367.84155273438</ele>
        <time>2012-12-26T04:21:02Z</time>
      </trkpt>
      <trkpt lat="-21.23206" lon="55.49569">
        <ele>364.47692871094</ele>
        <time>2012-12-26T04:21:20Z</time>
      </trkpt>
      <trkpt lat="-21.23211" lon="55.49557">
        <ele>361.59313964844</ele>
        <time>2012-12-26T04:21:38Z</time>
      </trkpt>
      <trkpt lat="-21.23213" lon="55.4956">
        <ele>358.708984375</ele>
        <time>2012-12-26T04:21:47Z</time>
      </trkpt>
      <trkpt lat="-21.2321" lon="55.49559">
        <ele>357.26708984375</ele>
        <time>2012-12-26T04:22:19Z</time>
      </trkpt>
      <trkpt lat="-21.2321" lon="55.49551">
        <ele>355.8251953125</ele>
        <time>2012-12-26T04:22:48Z</time>
      </trkpt>
      <trkpt lat="-21.23211" lon="55.49544">
        <ele>357.26708984375</ele>
        <time>2012-12-26T04:23:07Z</time>
      </trkpt>
      <trkpt lat="-21.23212" lon="55.4954">
        <ele>358.22839355469</ele>
        <time>2012-12-26T04:23:33Z</time>
      </trkpt>
      <trkpt lat="-21.23203" lon="55.49501">
        <ele>358.708984375</ele>
        <time>2012-12-26T04:23:57Z</time>
      </trkpt>
      <trkpt lat="-21.23227" lon="55.49539">
        <ele>360.63171386719</ele>
        <time>2012-12-26T04:24:18Z</time>
      </trkpt>
      <trkpt lat="-21.23235" lon="55.49558">
        <ele>361.59313964844</ele>
        <time>2012-12-26T04:24:36Z</time>
      </trkpt>
      <trkpt lat="-21.23249" lon="55.49543">
        <ele>364.47692871094</ele>
        <time>2012-12-26T04:24:55Z</time>
      </trkpt>
      <trkpt lat="-21.23255" lon="55.49544">
        <ele>367.84155273438</ele>
        <time>2012-12-26T04:25:14Z</time>
      </trkpt>
      <trkpt lat="-21.23256" lon="55.49523">
        <ele>369.76428222656</ele>
        <time>2012-12-26T04:25:57Z</time>
      </trkpt>
      <trkpt lat="-21.2325" lon="55.49504">
        <ele>372.64819335938</ele>
        <time>2012-12-26T04:26:12Z</time>
      </trkpt>
      <trkpt lat="-21.23255" lon="55.49515">
        <ele>376.01281738281</ele>
        <time>2012-12-26T04:26:25Z</time>
      </trkpt>
      <trkpt lat="-21.23258" lon="55.4951">
        <ele>375.05151367188</ele>
        <time>2012-12-26T04:26:36Z</time>
      </trkpt>
      <trkpt lat="-21.23259" lon="55.49512">
        <ele>374.57080078125</ele>
        <time>2012-12-26T04:26:44Z</time>
      </trkpt>
      <trkpt lat="-21.23257" lon="55.49509">
        <ele>374.57080078125</ele>
        <time>2012-12-26T04:26:48Z</time>
      </trkpt>
      <trkpt lat="-21.23254" lon="55.49507">
        <ele>378.41613769531</ele>
        <time>2012-12-26T04:26:58Z</time>
      </trkpt>
      <trkpt lat="-21.23256" lon="55.49499">
        <ele>378.89685058594</ele>
        <time>2012-12-26T04:27:11Z</time>
      </trkpt>
      <trkpt lat="-21.23248" lon="55.49488">
        <ele>379.37744140625</ele>
        <time>2012-12-26T04:27:18Z</time>
      </trkpt>
      <trkpt lat="-21.23247" lon="55.49486">
        <ele>379.85803222656</ele>
        <time>2012-12-26T04:27:21Z</time>
      </trkpt>
      <trkpt lat="-21.23251" lon="55.49483">
        <ele>378.89685058594</ele>
        <time>2012-12-26T04:27:27Z</time>
      </trkpt>
      <trkpt lat="-21.23253" lon="55.49479">
        <ele>378.89685058594</ele>
        <time>2012-12-26T04:27:31Z</time>
      </trkpt>
      <trkpt lat="-21.2326" lon="55.49471">
        <ele>377.93542480469</ele>
        <time>2012-12-26T04:27:37Z</time>
      </trkpt>
      <trkpt lat="-21.23261" lon="55.49462">
        <ele>375.53210449219</ele>
        <time>2012-12-26T04:27:50Z</time>
      </trkpt>
      <trkpt lat="-21.23269" lon="55.49448">
        <ele>372.64819335938</ele>
        <time>2012-12-26T04:28:01Z</time>
      </trkpt>
      <trkpt lat="-21.23269" lon="55.49446">
        <ele>372.16748046875</ele>
        <time>2012-12-26T04:28:04Z</time>
      </trkpt>
      <trkpt lat="-21.23274" lon="55.49428">
        <ele>370.24487304688</ele>
        <time>2012-12-26T04:28:18Z</time>
      </trkpt>
      <trkpt lat="-21.23296" lon="55.49418">
        <ele>369.76428222656</ele>
        <time>2012-12-26T04:28:29Z</time>
      </trkpt>
      <trkpt lat="-21.23311" lon="55.49409">
        <ele>369.76428222656</ele>
        <time>2012-12-26T04:28:43Z</time>
      </trkpt>
      <trkpt lat="-21.23336" lon="55.49391">
        <ele>367.84155273438</ele>
        <time>2012-12-26T04:28:59Z</time>
      </trkpt>
      <trkpt lat="-21.23341" lon="55.49386">
        <ele>367.84155273438</ele>
        <time>2012-12-26T04:29:04Z</time>
      </trkpt>
      <trkpt lat="-21.23344" lon="55.49381">
        <ele>368.322265625</ele>
        <time>2012-12-26T04:29:09Z</time>
      </trkpt>
      <trkpt lat="-21.23351" lon="55.49371">
        <ele>368.80297851562</ele>
        <time>2012-12-26T04:29:20Z</time>
      </trkpt>
      <trkpt lat="-21.23361" lon="55.49364">
        <ele>369.28369140625</ele>
        <time>2012-12-26T04:29:36Z</time>
      </trkpt>
      <trkpt lat="-21.23374" lon="55.49358">
        <ele>369.76428222656</ele>
        <time>2012-12-26T04:29:58Z</time>
      </trkpt>
      <trkpt lat="-21.23405" lon="55.49347">
        <ele>368.322265625</ele>
        <time>2012-12-26T04:30:30Z</time>
      </trkpt>
      <trkpt lat="-21.23436" lon="55.49337">
        <ele>366.39953613281</ele>
        <time>2012-12-26T04:31:00Z</time>
      </trkpt>
      <trkpt lat="-21.23455" lon="55.49341">
        <ele>366.88024902344</ele>
        <time>2012-12-26T04:31:14Z</time>
      </trkpt>
      <trkpt lat="-21.23486" lon="55.4935">
        <ele>368.322265625</ele>
        <time>2012-12-26T04:31:41Z</time>
      </trkpt>
      <trkpt lat="-21.23505" lon="55.49363">
        <ele>367.84155273438</ele>
        <time>2012-12-26T04:31:57Z</time>
      </trkpt>
      <trkpt lat="-21.23519" lon="55.49393">
        <ele>369.76428222656</ele>
        <time>2012-12-26T04:32:24Z</time>
      </trkpt>
      <trkpt lat="-21.23519" lon="55.49396">
        <ele>370.24487304688</ele>
        <time>2012-12-26T04:32:26Z</time>
      </trkpt>
      <trkpt lat="-21.23526" lon="55.49438">
        <ele>373.12890625</ele>
        <time>2012-12-26T04:32:45Z</time>
      </trkpt>
      <trkpt lat="-21.23535" lon="55.49451">
        <ele>376.49353027344</ele>
        <time>2012-12-26T04:33:01Z</time>
      </trkpt>
      <trkpt lat="-21.23538" lon="55.49461">
        <ele>378.41613769531</ele>
        <time>2012-12-26T04:33:09Z</time>
      </trkpt>
      <trkpt lat="-21.23539" lon="55.4949">
        <ele>381.78063964844</ele>
        <time>2012-12-26T04:33:29Z</time>
      </trkpt>
      <trkpt lat="-21.23561" lon="55.49473">
        <ele>385.14538574219</ele>
        <time>2012-12-26T04:33:45Z</time>
      </trkpt>
      <trkpt lat="-21.23584" lon="55.49454">
        <ele>385.14538574219</ele>
        <time>2012-12-26T04:34:02Z</time>
      </trkpt>
      <trkpt lat="-21.23584" lon="55.49453">
        <ele>385.6259765625</ele>
        <time>2012-12-26T04:34:37Z</time>
      </trkpt>
      <trkpt lat="-21.23593" lon="55.49447">
        <ele>385.14538574219</ele>
        <time>2012-12-26T04:35:11Z</time>
      </trkpt>
      <trkpt lat="-21.23594" lon="55.49449">
        <ele>385.6259765625</ele>
        <time>2012-12-26T04:35:30Z</time>
      </trkpt>
      <trkpt lat="-21.23594" lon="55.49451">
        <ele>385.14538574219</ele>
        <time>2012-12-26T04:36:05Z</time>
      </trkpt>
      <trkpt lat="-21.23593" lon="55.4945">
        <ele>385.6259765625</ele>
        <time>2012-12-26T04:37:22Z</time>
      </trkpt>
      <trkpt lat="-21.23593" lon="55.49457">
        <ele>385.14538574219</ele>
        <time>2012-12-26T04:38:33Z</time>
      </trkpt>
      <trkpt lat="-21.23598" lon="55.49468">
        <ele>383.22265625</ele>
        <time>2012-12-26T04:38:49Z</time>
      </trkpt>
      <trkpt lat="-21.23609" lon="55.49471">
        <ele>378.89685058594</ele>
        <time>2012-12-26T04:38:59Z</time>
      </trkpt>
      <trkpt lat="-21.23612" lon="55.4947">
        <ele>378.89685058594</ele>
        <time>2012-12-26T04:39:04Z</time>
      </trkpt>
      <trkpt lat="-21.23624" lon="55.49465">
        <ele>373.60949707031</ele>
        <time>2012-12-26T04:39:15Z</time>
      </trkpt>
      <trkpt lat="-21.23625" lon="55.49464">
        <ele>373.60949707031</ele>
        <time>2012-12-26T04:39:16Z</time>
      </trkpt>
      <trkpt lat="-21.23634" lon="55.49461">
        <ele>374.09008789062</ele>
        <time>2012-12-26T04:39:27Z</time>
      </trkpt>
      <trkpt lat="-21.23653" lon="55.49456">
        <ele>373.12890625</ele>
        <time>2012-12-26T04:39:41Z</time>
      </trkpt>
      <trkpt lat="-21.23675" lon="55.49439">
        <ele>372.64819335938</ele>
        <time>2012-12-26T04:39:53Z</time>
      </trkpt>
      <trkpt lat="-21.23694" lon="55.49411">
        <ele>371.68688964844</ele>
        <time>2012-12-26T04:40:06Z</time>
      </trkpt>
      <trkpt lat="-21.23704" lon="55.49376">
        <ele>371.20629882812</ele>
        <time>2012-12-26T04:40:21Z</time>
      </trkpt>
      <trkpt lat="-21.23693" lon="55.49354">
        <ele>370.24487304688</ele>
        <time>2012-12-26T04:40:33Z</time>
      </trkpt>
      <trkpt lat="-21.23691" lon="55.49351">
        <ele>370.24487304688</ele>
        <time>2012-12-26T04:40:35Z</time>
      </trkpt>
      <trkpt lat="-21.23688" lon="55.49342">
        <ele>370.24487304688</ele>
        <time>2012-12-26T04:40:40Z</time>
      </trkpt>
      <trkpt lat="-21.23675" lon="55.4933">
        <ele>369.76428222656</ele>
        <time>2012-12-26T04:40:48Z</time>
      </trkpt>
      <trkpt lat="-21.23669" lon="55.49328">
        <ele>369.76428222656</ele>
        <time>2012-12-26T04:40:53Z</time>
      </trkpt>
      <trkpt lat="-21.23656" lon="55.49313">
        <ele>368.80297851562</ele>
        <time>2012-12-26T04:40:59Z</time>
      </trkpt>
      <trkpt lat="-21.23656" lon="55.49303">
        <ele>368.80297851562</ele>
        <time>2012-12-26T04:41:03Z</time>
      </trkpt>
      <trkpt lat="-21.23655" lon="55.49299">
        <ele>369.28369140625</ele>
        <time>2012-12-26T04:41:08Z</time>
      </trkpt>
      <trkpt lat="-21.23656" lon="55.49291">
        <ele>368.80297851562</ele>
        <time>2012-12-26T04:41:12Z</time>
      </trkpt>
      <trkpt lat="-21.23654" lon="55.49286">
        <ele>368.80297851562</ele>
        <time>2012-12-26T04:41:15Z</time>
      </trkpt>
      <trkpt lat="-21.23666" lon="55.49272">
        <ele>368.80297851562</ele>
        <time>2012-12-26T04:41:30Z</time>
      </trkpt>
      <trkpt lat="-21.23672" lon="55.49267">
        <ele>368.80297851562</ele>
        <time>2012-12-26T04:41:53Z</time>
      </trkpt>
      <trkpt lat="-21.23678" lon="55.49258">
        <ele>367.84155273438</ele>
        <time>2012-12-26T04:42:05Z</time>
      </trkpt>
      <trkpt lat="-21.23672" lon="55.49228">
        <ele>367.36096191406</ele>
        <time>2012-12-26T04:42:20Z</time>
      </trkpt>
      <trkpt lat="-21.23672" lon="55.49218">
        <ele>366.39953613281</ele>
        <time>2012-12-26T04:42:27Z</time>
      </trkpt>
      <trkpt lat="-21.23667" lon="55.49203">
        <ele>365.9189453125</ele>
        <time>2012-12-26T04:42:41Z</time>
      </trkpt>
      <trkpt lat="-21.23665" lon="55.49195">
        <ele>365.43835449219</ele>
        <time>2012-12-26T04:42:54Z</time>
      </trkpt>
      <trkpt lat="-21.23666" lon="55.49187">
        <ele>365.43835449219</ele>
        <time>2012-12-26T04:43:01Z</time>
      </trkpt>
      <trkpt lat="-21.23664" lon="55.49179">
        <ele>364.95764160156</ele>
        <time>2012-12-26T04:43:12Z</time>
      </trkpt>
      <trkpt lat="-21.2366" lon="55.4917">
        <ele>365.43835449219</ele>
        <time>2012-12-26T04:43:19Z</time>
      </trkpt>
      <trkpt lat="-21.23646" lon="55.49157">
        <ele>364.95764160156</ele>
        <time>2012-12-26T04:43:35Z</time>
      </trkpt>
      <trkpt lat="-21.23628" lon="55.49147">
        <ele>364.95764160156</ele>
        <time>2012-12-26T04:43:58Z</time>
      </trkpt>
      <trkpt lat="-21.2362" lon="55.49117">
        <ele>364.95764160156</ele>
        <time>2012-12-26T04:44:23Z</time>
      </trkpt>
      <trkpt lat="-21.23613" lon="55.49098">
        <ele>362.55432128906</ele>
        <time>2012-12-26T04:44:47Z</time>
      </trkpt>
      <trkpt lat="-21.23597" lon="55.49076">
        <ele>360.63171386719</ele>
        <time>2012-12-26T04:45:05Z</time>
      </trkpt>
      <trkpt lat="-21.23598" lon="55.49055">
        <ele>358.708984375</ele>
        <time>2012-12-26T04:45:19Z</time>
      </trkpt>
      <trkpt lat="-21.23596" lon="55.49052">
        <ele>357.74780273438</ele>
        <time>2012-12-26T04:45:21Z</time>
      </trkpt>
      <trkpt lat="-21.23606" lon="55.49024">
        <ele>356.30578613281</ele>
        <time>2012-12-26T04:45:48Z</time>
      </trkpt>
      <trkpt lat="-21.23608" lon="55.49014">
        <ele>356.78637695312</ele>
        <time>2012-12-26T04:46:15Z</time>
      </trkpt>
      <trkpt lat="-21.23615" lon="55.49013">
        <ele>356.30578613281</ele>
        <time>2012-12-26T04:46:57Z</time>
      </trkpt>
      <trkpt lat="-21.23629" lon="55.48991">
        <ele>357.74780273438</ele>
        <time>2012-12-26T04:48:00Z</time>
      </trkpt>
      <trkpt lat="-21.23632" lon="55.48993">
        <ele>357.74780273438</ele>
        <time>2012-12-26T04:48:26Z</time>
      </trkpt>
      <trkpt lat="-21.23637" lon="55.49002">
        <ele>358.22839355469</ele>
        <time>2012-12-26T04:48:42Z</time>
      </trkpt>
      <trkpt lat="-21.23631" lon="55.4901">
        <ele>356.78637695312</ele>
        <time>2012-12-26T04:48:59Z</time>
      </trkpt>
      <trkpt lat="-21.23622" lon="55.49016">
        <ele>357.26708984375</ele>
        <time>2012-12-26T04:49:09Z</time>
      </trkpt>
      <trkpt lat="-21.23612" lon="55.49029">
        <ele>356.78637695312</ele>
        <time>2012-12-26T04:49:20Z</time>
      </trkpt>
      <trkpt lat="-21.23617" lon="55.49025">
        <ele>356.30578613281</ele>
        <time>2012-12-26T04:49:58Z</time>
      </trkpt>
      <trkpt lat="-21.23613" lon="55.49021">
        <ele>357.74780273438</ele>
        <time>2012-12-26T04:50:12Z</time>
      </trkpt>
      <trkpt lat="-21.23609" lon="55.49015">
        <ele>359.67041015625</ele>
        <time>2012-12-26T04:50:15Z</time>
      </trkpt>
      <trkpt lat="-21.23606" lon="55.49011">
        <ele>358.708984375</ele>
        <time>2012-12-26T04:50:17Z</time>
      </trkpt>
      <trkpt lat="-21.23598" lon="55.49001">
        <ele>359.18969726562</ele>
        <time>2012-12-26T04:50:24Z</time>
      </trkpt>
      <trkpt lat="-21.23596" lon="55.48996">
        <ele>357.74780273438</ele>
        <time>2012-12-26T04:50:34Z</time>
      </trkpt>
      <trkpt lat="-21.23592" lon="55.48989">
        <ele>356.30578613281</ele>
        <time>2012-12-26T04:50:43Z</time>
      </trkpt>
      <trkpt lat="-21.23589" lon="55.48957">
        <ele>355.34448242188</ele>
        <time>2012-12-26T04:51:02Z</time>
      </trkpt>
      <trkpt lat="-21.23593" lon="55.48942">
        <ele>351.97985839844</ele>
        <time>2012-12-26T04:51:15Z</time>
      </trkpt>
      <trkpt lat="-21.23596" lon="55.48929">
        <ele>348.615234375</ele>
        <time>2012-12-26T04:51:26Z</time>
      </trkpt>
      <trkpt lat="-21.23599" lon="55.48924">
        <ele>349.09582519531</ele>
        <time>2012-12-26T04:51:29Z</time>
      </trkpt>
      <trkpt lat="-21.23605" lon="55.48903">
        <ele>346.21203613281</ele>
        <time>2012-12-26T04:51:44Z</time>
      </trkpt>
      <trkpt lat="-21.23606" lon="55.48902">
        <ele>344.28942871094</ele>
        <time>2012-12-26T04:51:48Z</time>
      </trkpt>
      <trkpt lat="-21.2361" lon="55.48901">
        <ele>340.92468261719</ele>
        <time>2012-12-26T04:51:57Z</time>
      </trkpt>
      <trkpt lat="-21.23617" lon="55.48898">
        <ele>338.04077148438</ele>
        <time>2012-12-26T04:52:05Z</time>
      </trkpt>
      <trkpt lat="-21.23614" lon="55.48894">
        <ele>335.15673828125</ele>
        <time>2012-12-26T04:52:11Z</time>
      </trkpt>
      <trkpt lat="-21.23612" lon="55.48888">
        <ele>331.3115234375</ele>
        <time>2012-12-26T04:52:18Z</time>
      </trkpt>
      <trkpt lat="-21.23614" lon="55.4888">
        <ele>327.94677734375</ele>
        <time>2012-12-26T04:52:28Z</time>
      </trkpt>
      <trkpt lat="-21.23631" lon="55.48875">
        <ele>326.02416992188</ele>
        <time>2012-12-26T04:52:42Z</time>
      </trkpt>
      <trkpt lat="-21.23634" lon="55.48864">
        <ele>324.58227539062</ele>
        <time>2012-12-26T04:52:57Z</time>
      </trkpt>
      <trkpt lat="-21.23631" lon="55.48857">
        <ele>320.73706054688</ele>
        <time>2012-12-26T04:53:16Z</time>
      </trkpt>
      <trkpt lat="-21.23631" lon="55.48846">
        <ele>320.25634765625</ele>
        <time>2012-12-26T04:53:30Z</time>
      </trkpt>
      <trkpt lat="-21.23629" lon="55.48842">
        <ele>318.81433105469</ele>
        <time>2012-12-26T04:53:34Z</time>
      </trkpt>
      <trkpt lat="-21.23632" lon="55.48834">
        <ele>316.89172363281</ele>
        <time>2012-12-26T04:53:46Z</time>
      </trkpt>
      <trkpt lat="-21.23632" lon="55.48827">
        <ele>317.37243652344</ele>
        <time>2012-12-26T04:53:54Z</time>
      </trkpt>
      <trkpt lat="-21.23639" lon="55.48814">
        <ele>316.89172363281</ele>
        <time>2012-12-26T04:54:10Z</time>
      </trkpt>
      <trkpt lat="-21.23639" lon="55.4881">
        <ele>316.41101074219</ele>
        <time>2012-12-26T04:54:13Z</time>
      </trkpt>
      <trkpt lat="-21.23611" lon="55.48795">
        <ele>315.93041992188</ele>
        <time>2012-12-26T04:54:38Z</time>
      </trkpt>
      <trkpt lat="-21.23607" lon="55.48788">
        <ele>315.93041992188</ele>
        <time>2012-12-26T04:54:44Z</time>
      </trkpt>
      <trkpt lat="-21.23602" lon="55.48766">
        <ele>314.96911621094</ele>
        <time>2012-12-26T04:55:00Z</time>
      </trkpt>
      <trkpt lat="-21.23594" lon="55.48759">
        <ele>314.0078125</ele>
        <time>2012-12-26T04:55:08Z</time>
      </trkpt>
      <trkpt lat="-21.23604" lon="55.48759">
        <ele>313.52722167969</ele>
        <time>2012-12-26T04:55:18Z</time>
      </trkpt>
      <trkpt lat="-21.23606" lon="55.48758">
        <ele>313.52722167969</ele>
        <time>2012-12-26T04:55:28Z</time>
      </trkpt>
      <trkpt lat="-21.23605" lon="55.48757">
        <ele>313.52722167969</ele>
        <time>2012-12-26T04:55:29Z</time>
      </trkpt>
      <trkpt lat="-21.23603" lon="55.48746">
        <ele>314.0078125</ele>
        <time>2012-12-26T04:55:41Z</time>
      </trkpt>
      <trkpt lat="-21.23599" lon="55.48738">
        <ele>313.52722167969</ele>
        <time>2012-12-26T04:56:06Z</time>
      </trkpt>
      <trkpt lat="-21.23619" lon="55.4875">
        <ele>314.48840332031</ele>
        <time>2012-12-26T04:56:19Z</time>
      </trkpt>
      <trkpt lat="-21.23619" lon="55.48747">
        <ele>314.48840332031</ele>
        <time>2012-12-26T04:56:40Z</time>
      </trkpt>
      <trkpt lat="-21.23613" lon="55.4873">
        <ele>313.52722167969</ele>
        <time>2012-12-26T04:57:33Z</time>
      </trkpt>
      <trkpt lat="-21.23619" lon="55.48729">
        <ele>313.52722167969</ele>
        <time>2012-12-26T04:57:53Z</time>
      </trkpt>
      <trkpt lat="-21.23626" lon="55.48714">
        <ele>312.56579589844</ele>
        <time>2012-12-26T04:58:24Z</time>
      </trkpt>
      <trkpt lat="-21.23623" lon="55.48712">
        <ele>312.56579589844</ele>
        <time>2012-12-26T04:58:56Z</time>
      </trkpt>
      <trkpt lat="-21.23634" lon="55.48703">
        <ele>311.6044921875</ele>
        <time>2012-12-26T04:59:22Z</time>
      </trkpt>
      <trkpt lat="-21.23644" lon="55.48684">
        <ele>311.6044921875</ele>
        <time>2012-12-26T04:59:42Z</time>
      </trkpt>
      <trkpt lat="-21.23644" lon="55.48678">
        <ele>311.12377929688</ele>
        <time>2012-12-26T05:00:07Z</time>
      </trkpt>
      <trkpt lat="-21.23633" lon="55.4866">
        <ele>311.12377929688</ele>
        <time>2012-12-26T05:00:31Z</time>
      </trkpt>
      <trkpt lat="-21.23639" lon="55.48645">
        <ele>310.16247558594</ele>
        <time>2012-12-26T05:00:51Z</time>
      </trkpt>
      <trkpt lat="-21.23653" lon="55.48642">
        <ele>311.12377929688</ele>
        <time>2012-12-26T05:01:07Z</time>
      </trkpt>
      <trkpt lat="-21.23665" lon="55.48636">
        <ele>310.64306640625</ele>
        <time>2012-12-26T05:01:17Z</time>
      </trkpt>
      <trkpt lat="-21.2366" lon="55.48632">
        <ele>310.16247558594</ele>
        <time>2012-12-26T05:01:22Z</time>
      </trkpt>
      <trkpt lat="-21.23656" lon="55.48622">
        <ele>310.64306640625</ele>
        <time>2012-12-26T05:01:32Z</time>
      </trkpt>
      <trkpt lat="-21.23666" lon="55.48614">
        <ele>309.68188476562</ele>
        <time>2012-12-26T05:01:45Z</time>
      </trkpt>
      <trkpt lat="-21.23665" lon="55.48611">
        <ele>310.16247558594</ele>
        <time>2012-12-26T05:01:47Z</time>
      </trkpt>
      <trkpt lat="-21.23694" lon="55.48611">
        <ele>309.201171875</ele>
        <time>2012-12-26T05:02:02Z</time>
      </trkpt>
      <trkpt lat="-21.23696" lon="55.4861">
        <ele>309.68188476562</ele>
        <time>2012-12-26T05:02:04Z</time>
      </trkpt>
      <trkpt lat="-21.23721" lon="55.48617">
        <ele>309.201171875</ele>
        <time>2012-12-26T05:02:21Z</time>
      </trkpt>
      <trkpt lat="-21.23712" lon="55.48625">
        <ele>309.201171875</ele>
        <time>2012-12-26T05:02:53Z</time>
      </trkpt>
      <trkpt lat="-21.23713" lon="55.48618">
        <ele>308.23986816406</ele>
        <time>2012-12-26T05:03:55Z</time>
      </trkpt>
      <trkpt lat="-21.23717" lon="55.48609">
        <ele>307.27856445312</ele>
        <time>2012-12-26T05:04:08Z</time>
      </trkpt>
      <trkpt lat="-21.23728" lon="55.48599">
        <ele>306.7978515625</ele>
        <time>2012-12-26T05:04:20Z</time>
      </trkpt>
      <trkpt lat="-21.23727" lon="55.48594">
        <ele>307.27856445312</ele>
        <time>2012-12-26T05:04:32Z</time>
      </trkpt>
      <trkpt lat="-21.23731" lon="55.4858">
        <ele>307.27856445312</ele>
        <time>2012-12-26T05:04:38Z</time>
      </trkpt>
      <trkpt lat="-21.23728" lon="55.48569">
        <ele>307.27856445312</ele>
        <time>2012-12-26T05:04:44Z</time>
      </trkpt>
      <trkpt lat="-21.23727" lon="55.48566">
        <ele>306.7978515625</ele>
        <time>2012-12-26T05:04:47Z</time>
      </trkpt>
      <trkpt lat="-21.23728" lon="55.48561">
        <ele>307.27856445312</ele>
        <time>2012-12-26T05:05:01Z</time>
      </trkpt>
      <trkpt lat="-21.23733" lon="55.48553">
        <ele>307.27856445312</ele>
        <time>2012-12-26T05:05:16Z</time>
      </trkpt>
      <trkpt lat="-21.23732" lon="55.48545">
        <ele>307.75927734375</ele>
        <time>2012-12-26T05:05:32Z</time>
      </trkpt>
      <trkpt lat="-21.23739" lon="55.48546">
        <ele>307.75927734375</ele>
        <time>2012-12-26T05:05:45Z</time>
      </trkpt>
      <trkpt lat="-21.23748" lon="55.48538">
        <ele>307.27856445312</ele>
        <time>2012-12-26T05:05:59Z</time>
      </trkpt>
      <trkpt lat="-21.23748" lon="55.48547">
        <ele>305.83666992188</ele>
        <time>2012-12-26T05:06:14Z</time>
      </trkpt>
      <trkpt lat="-21.2376" lon="55.48554">
        <ele>306.31726074219</ele>
        <time>2012-12-26T05:06:24Z</time>
      </trkpt>
      <trkpt lat="-21.23766" lon="55.48556">
        <ele>305.83666992188</ele>
        <time>2012-12-26T05:06:27Z</time>
      </trkpt>
      <trkpt lat="-21.23791" lon="55.48556">
        <ele>305.83666992188</ele>
        <time>2012-12-26T05:06:42Z</time>
      </trkpt>
      <trkpt lat="-21.238" lon="55.48555">
        <ele>305.83666992188</ele>
        <time>2012-12-26T05:06:51Z</time>
      </trkpt>
      <trkpt lat="-21.23804" lon="55.48559">
        <ele>304.87524414062</ele>
        <time>2012-12-26T05:07:05Z</time>
      </trkpt>
      <trkpt lat="-21.23813" lon="55.48543">
        <ele>305.35595703125</ele>
        <time>2012-12-26T05:07:26Z</time>
      </trkpt>
      <trkpt lat="-21.23814" lon="55.48532">
        <ele>305.35595703125</ele>
        <time>2012-12-26T05:07:51Z</time>
      </trkpt>
      <trkpt lat="-21.23822" lon="55.48528">
        <ele>304.87524414062</ele>
        <time>2012-12-26T05:08:06Z</time>
      </trkpt>
      <trkpt lat="-21.23833" lon="55.48525">
        <ele>304.39465332031</ele>
        <time>2012-12-26T05:08:24Z</time>
      </trkpt>
      <trkpt lat="-21.23847" lon="55.48497">
        <ele>302.95251464844</ele>
        <time>2012-12-26T05:08:56Z</time>
      </trkpt>
      <trkpt lat="-21.23835" lon="55.48484">
        <ele>303.91394042969</ele>
        <time>2012-12-26T05:09:16Z</time>
      </trkpt>
      <trkpt lat="-21.2384" lon="55.48479">
        <ele>302.47192382812</ele>
        <time>2012-12-26T05:09:47Z</time>
      </trkpt>
      <trkpt lat="-21.23848" lon="55.48519">
        <ele>302.95251464844</ele>
        <time>2012-12-26T05:10:09Z</time>
      </trkpt>
      <trkpt lat="-21.23849" lon="55.48522">
        <ele>302.95251464844</ele>
        <time>2012-12-26T05:10:13Z</time>
      </trkpt>
      <trkpt lat="-21.23853" lon="55.48526">
        <ele>303.43322753906</ele>
        <time>2012-12-26T05:10:17Z</time>
      </trkpt>
      <trkpt lat="-21.23855" lon="55.48534">
        <ele>304.39465332031</ele>
        <time>2012-12-26T05:10:31Z</time>
      </trkpt>
      <trkpt lat="-21.23855" lon="55.48513">
        <ele>303.91394042969</ele>
        <time>2012-12-26T05:10:54Z</time>
      </trkpt>
      <trkpt lat="-21.23859" lon="55.48505">
        <ele>304.39465332031</ele>
        <time>2012-12-26T05:11:01Z</time>
      </trkpt>
      <trkpt lat="-21.2387" lon="55.485">
        <ele>302.95251464844</ele>
        <time>2012-12-26T05:11:19Z</time>
      </trkpt>
      <trkpt lat="-21.23857" lon="55.48483">
        <ele>302.95251464844</ele>
        <time>2012-12-26T05:11:39Z</time>
      </trkpt>
      <trkpt lat="-21.23852" lon="55.48493">
        <ele>302.47192382812</ele>
        <time>2012-12-26T05:11:55Z</time>
      </trkpt>
      <trkpt lat="-21.23852" lon="55.48493">
        <ele>302.95251464844</ele>
        <time>2012-12-26T05:12:23Z</time>
      </trkpt>
      <trkpt lat="-21.23858" lon="55.48481">
        <ele>302.95251464844</ele>
        <time>2012-12-26T05:12:45Z</time>
      </trkpt>
      <trkpt lat="-21.23865" lon="55.48478">
        <ele>301.51062011719</ele>
        <time>2012-12-26T05:12:50Z</time>
      </trkpt>
      <trkpt lat="-21.2389" lon="55.48477">
        <ele>301.02990722656</ele>
        <time>2012-12-26T05:13:02Z</time>
      </trkpt>
      <trkpt lat="-21.23898" lon="55.4849">
        <ele>300.06872558594</ele>
        <time>2012-12-26T05:13:16Z</time>
      </trkpt>
      <trkpt lat="-21.239" lon="55.48484">
        <ele>300.54931640625</ele>
        <time>2012-12-26T05:13:32Z</time>
      </trkpt>
      <trkpt lat="-21.23929" lon="55.48494">
        <ele>300.54931640625</ele>
        <time>2012-12-26T05:13:46Z</time>
      </trkpt>
      <trkpt lat="-21.2394" lon="55.48494">
        <ele>299.58801269531</ele>
        <time>2012-12-26T05:13:53Z</time>
      </trkpt>
      <trkpt lat="-21.23945" lon="55.48493">
        <ele>300.06872558594</ele>
        <time>2012-12-26T05:13:56Z</time>
      </trkpt>
      <trkpt lat="-21.23955" lon="55.48485">
        <ele>300.06872558594</ele>
        <time>2012-12-26T05:14:00Z</time>
      </trkpt>
      <trkpt lat="-21.2396" lon="55.48476">
        <ele>300.54931640625</ele>
        <time>2012-12-26T05:14:03Z</time>
      </trkpt>
      <trkpt lat="-21.2399" lon="55.48447">
        <ele>300.54931640625</ele>
        <time>2012-12-26T05:14:14Z</time>
      </trkpt>
      <trkpt lat="-21.23998" lon="55.48438">
        <ele>299.58801269531</ele>
        <time>2012-12-26T05:14:19Z</time>
      </trkpt>
      <trkpt lat="-21.24004" lon="55.48438">
        <ele>300.06872558594</ele>
        <time>2012-12-26T05:14:24Z</time>
      </trkpt>
      <trkpt lat="-21.24005" lon="55.48441">
        <ele>299.58801269531</ele>
        <time>2012-12-26T05:14:26Z</time>
      </trkpt>
      <trkpt lat="-21.24025" lon="55.48442">
        <ele>299.10729980469</ele>
        <time>2012-12-26T05:14:42Z</time>
      </trkpt>
      <trkpt lat="-21.24036" lon="55.48434">
        <ele>299.10729980469</ele>
        <time>2012-12-26T05:14:51Z</time>
      </trkpt>
      <trkpt lat="-21.24051" lon="55.48439">
        <ele>298.62670898438</ele>
        <time>2012-12-26T05:15:05Z</time>
      </trkpt>
      <trkpt lat="-21.24072" lon="55.48436">
        <ele>298.62670898438</ele>
        <time>2012-12-26T05:15:23Z</time>
      </trkpt>
      <trkpt lat="-21.24075" lon="55.48426">
        <ele>298.14611816406</ele>
        <time>2012-12-26T05:15:34Z</time>
      </trkpt>
      <trkpt lat="-21.24065" lon="55.48441">
        <ele>298.14611816406</ele>
        <time>2012-12-26T05:15:52Z</time>
      </trkpt>
      <trkpt lat="-21.24061" lon="55.48503">
        <ele>298.14611816406</ele>
        <time>2012-12-26T05:16:09Z</time>
      </trkpt>
      <trkpt lat="-21.24055" lon="55.48513">
        <ele>298.14611816406</ele>
        <time>2012-12-26T05:16:15Z</time>
      </trkpt>
      <trkpt lat="-21.24059" lon="55.48511">
        <ele>297.66540527344</ele>
        <time>2012-12-26T05:16:22Z</time>
      </trkpt>
      <trkpt lat="-21.24063" lon="55.48513">
        <ele>297.18469238281</ele>
        <time>2012-12-26T05:16:26Z</time>
      </trkpt>
      <trkpt lat="-21.24074" lon="55.48516">
        <ele>297.66540527344</ele>
        <time>2012-12-26T05:16:39Z</time>
      </trkpt>
      <trkpt lat="-21.24081" lon="55.48517">
        <ele>297.18469238281</ele>
        <time>2012-12-26T05:16:47Z</time>
      </trkpt>
      <trkpt lat="-21.24084" lon="55.48517">
        <ele>297.66540527344</ele>
        <time>2012-12-26T05:16:50Z</time>
      </trkpt>
      <trkpt lat="-21.24101" lon="55.48522">
        <ele>297.18469238281</ele>
        <time>2012-12-26T05:17:05Z</time>
      </trkpt>
      <trkpt lat="-21.24102" lon="55.48523">
        <ele>297.18469238281</ele>
        <time>2012-12-26T05:17:06Z</time>
      </trkpt>
      <trkpt lat="-21.24114" lon="55.48529">
        <ele>297.18469238281</ele>
        <time>2012-12-26T05:17:15Z</time>
      </trkpt>
      <trkpt lat="-21.24123" lon="55.48543">
        <ele>296.7041015625</ele>
        <time>2012-12-26T05:17:26Z</time>
      </trkpt>
      <trkpt lat="-21.24132" lon="55.48547">
        <ele>296.7041015625</ele>
        <time>2012-12-26T05:17:33Z</time>
      </trkpt>
      <trkpt lat="-21.24165" lon="55.48544">
        <ele>295.74267578125</ele>
        <time>2012-12-26T05:17:51Z</time>
      </trkpt>
      <trkpt lat="-21.24176" lon="55.48544">
        <ele>295.74267578125</ele>
        <time>2012-12-26T05:17:56Z</time>
      </trkpt>
      <trkpt lat="-21.24179" lon="55.48545">
        <ele>295.74267578125</ele>
        <time>2012-12-26T05:18:00Z</time>
      </trkpt>
      <trkpt lat="-21.24183" lon="55.48555">
        <ele>295.74267578125</ele>
        <time>2012-12-26T05:18:13Z</time>
      </trkpt>
      <trkpt lat="-21.24183" lon="55.48552">
        <ele>296.22351074219</ele>
        <time>2012-12-26T05:18:35Z</time>
      </trkpt>
      <trkpt lat="-21.2418" lon="55.48553">
        <ele>295.74267578125</ele>
        <time>2012-12-26T05:19:02Z</time>
      </trkpt>
      <trkpt lat="-21.2418" lon="55.48555">
        <ele>295.74267578125</ele>
        <time>2012-12-26T05:19:03Z</time>
      </trkpt>
      <trkpt lat="-21.242" lon="55.48554">
        <ele>295.74267578125</ele>
        <time>2012-12-26T05:19:19Z</time>
      </trkpt>
      <trkpt lat="-21.24219" lon="55.48546">
        <ele>295.26196289062</ele>
        <time>2012-12-26T05:19:39Z</time>
      </trkpt>
      <trkpt lat="-21.24223" lon="55.48555">
        <ele>295.26196289062</ele>
        <time>2012-12-26T05:19:58Z</time>
      </trkpt>
      <trkpt lat="-21.24224" lon="55.48556">
        <ele>294.78137207031</ele>
        <time>2012-12-26T05:20:00Z</time>
      </trkpt>
      <trkpt lat="-21.2422" lon="55.48569">
        <ele>294.30078125</ele>
        <time>2012-12-26T05:20:18Z</time>
      </trkpt>
      <trkpt lat="-21.24218" lon="55.4857">
        <ele>294.30078125</ele>
        <time>2012-12-26T05:20:21Z</time>
      </trkpt>
      <trkpt lat="-21.24217" lon="55.48578">
        <ele>294.30078125</ele>
        <time>2012-12-26T05:20:28Z</time>
      </trkpt>
      <trkpt lat="-21.24219" lon="55.48581">
        <ele>294.30078125</ele>
        <time>2012-12-26T05:20:33Z</time>
      </trkpt>
      <trkpt lat="-21.2426" lon="55.48555">
        <ele>293.82006835938</ele>
        <time>2012-12-26T05:20:48Z</time>
      </trkpt>
      <trkpt lat="-21.24264" lon="55.48567">
        <ele>293.33935546875</ele>
        <time>2012-12-26T05:21:02Z</time>
      </trkpt>
      <trkpt lat="-21.24282" lon="55.4856">
        <ele>293.33935546875</ele>
        <time>2012-12-26T05:21:29Z</time>
      </trkpt>
      <trkpt lat="-21.24289" lon="55.48567">
        <ele>293.82006835938</ele>
        <time>2012-12-26T05:21:42Z</time>
      </trkpt>
      <trkpt lat="-21.24289" lon="55.48568">
        <ele>292.85876464844</ele>
        <time>2012-12-26T05:21:43Z</time>
      </trkpt>
      <trkpt lat="-21.24289" lon="55.48571">
        <ele>293.82006835938</ele>
        <time>2012-12-26T05:21:45Z</time>
      </trkpt>
      <trkpt lat="-21.24291" lon="55.48571">
        <ele>293.33935546875</ele>
        <time>2012-12-26T05:21:47Z</time>
      </trkpt>
      <trkpt lat="-21.24297" lon="55.4857">
        <ele>293.33935546875</ele>
        <time>2012-12-26T05:21:57Z</time>
      </trkpt>
      <trkpt lat="-21.24302" lon="55.48579">
        <ele>292.85876464844</ele>
        <time>2012-12-26T05:22:12Z</time>
      </trkpt>
      <trkpt lat="-21.24309" lon="55.48581">
        <ele>293.33935546875</ele>
        <time>2012-12-26T05:22:23Z</time>
      </trkpt>
      <trkpt lat="-21.24312" lon="55.48599">
        <ele>293.82006835938</ele>
        <time>2012-12-26T05:22:33Z</time>
      </trkpt>
      <trkpt lat="-21.24313" lon="55.486">
        <ele>293.33935546875</ele>
        <time>2012-12-26T05:22:38Z</time>
      </trkpt>
      <trkpt lat="-21.24315" lon="55.48614">
        <ele>293.82006835938</ele>
        <time>2012-12-26T05:22:49Z</time>
      </trkpt>
      <trkpt lat="-21.2432" lon="55.48621">
        <ele>294.30078125</ele>
        <time>2012-12-26T05:23:03Z</time>
      </trkpt>
      <trkpt lat="-21.24324" lon="55.4863">
        <ele>293.33935546875</ele>
        <time>2012-12-26T05:23:12Z</time>
      </trkpt>
      <trkpt lat="-21.24328" lon="55.48635">
        <ele>293.33935546875</ele>
        <time>2012-12-26T05:23:17Z</time>
      </trkpt>
      <trkpt lat="-21.24332" lon="55.48641">
        <ele>294.30078125</ele>
        <time>2012-12-26T05:23:22Z</time>
      </trkpt>
      <trkpt lat="-21.24334" lon="55.48643">
        <ele>293.33935546875</ele>
        <time>2012-12-26T05:23:24Z</time>
      </trkpt>
      <trkpt lat="-21.24335" lon="55.48644">
        <ele>293.82006835938</ele>
        <time>2012-12-26T05:23:26Z</time>
      </trkpt>
      <trkpt lat="-21.24345" lon="55.48655">
        <ele>293.33935546875</ele>
        <time>2012-12-26T05:23:39Z</time>
      </trkpt>
      <trkpt lat="-21.24349" lon="55.48662">
        <ele>292.85876464844</ele>
        <time>2012-12-26T05:23:44Z</time>
      </trkpt>
      <trkpt lat="-21.24351" lon="55.48663">
        <ele>293.33935546875</ele>
        <time>2012-12-26T05:23:46Z</time>
      </trkpt>
      <trkpt lat="-21.24361" lon="55.48666">
        <ele>294.30078125</ele>
        <time>2012-12-26T05:23:54Z</time>
      </trkpt>
      <trkpt lat="-21.24373" lon="55.48672">
        <ele>293.82006835938</ele>
        <time>2012-12-26T05:24:07Z</time>
      </trkpt>
      <trkpt lat="-21.24385" lon="55.48669">
        <ele>293.33935546875</ele>
        <time>2012-12-26T05:24:17Z</time>
      </trkpt>
      <trkpt lat="-21.24401" lon="55.48666">
        <ele>291.8974609375</ele>
        <time>2012-12-26T05:24:31Z</time>
      </trkpt>
      <trkpt lat="-21.24401" lon="55.48663">
        <ele>291.41674804688</ele>
        <time>2012-12-26T05:24:39Z</time>
      </trkpt>
      <trkpt lat="-21.24408" lon="55.48662">
        <ele>291.41674804688</ele>
        <time>2012-12-26T05:24:53Z</time>
      </trkpt>
      <trkpt lat="-21.2441" lon="55.48661">
        <ele>291.41674804688</ele>
        <time>2012-12-26T05:25:03Z</time>
      </trkpt>
      <trkpt lat="-21.24419" lon="55.48658">
        <ele>289.01354980469</ele>
        <time>2012-12-26T05:25:16Z</time>
      </trkpt>
      <trkpt lat="-21.24423" lon="55.48663">
        <ele>286.61022949219</ele>
        <time>2012-12-26T05:25:29Z</time>
      </trkpt>
      <trkpt lat="-21.2442" lon="55.48669">
        <ele>287.0908203125</ele>
        <time>2012-12-26T05:25:49Z</time>
      </trkpt>
      <trkpt lat="-21.24425" lon="55.48672">
        <ele>287.57141113281</ele>
        <time>2012-12-26T05:25:58Z</time>
      </trkpt>
      <trkpt lat="-21.24406" lon="55.48694">
        <ele>289.01354980469</ele>
        <time>2012-12-26T05:26:21Z</time>
      </trkpt>
      <trkpt lat="-21.24399" lon="55.48661">
        <ele>291.41674804688</ele>
        <time>2012-12-26T05:26:40Z</time>
      </trkpt>
      <trkpt lat="-21.24386" lon="55.48669">
        <ele>291.41674804688</ele>
        <time>2012-12-26T05:27:04Z</time>
      </trkpt>
      <trkpt lat="-21.24385" lon="55.48673">
        <ele>290.93615722656</ele>
        <time>2012-12-26T05:27:27Z</time>
      </trkpt>
      <trkpt lat="-21.24418" lon="55.4862">
        <ele>290.45556640625</ele>
        <time>2012-12-26T05:27:52Z</time>
      </trkpt>
      <trkpt lat="-21.24427" lon="55.4864">
        <ele>287.57141113281</ele>
        <time>2012-12-26T05:28:23Z</time>
      </trkpt>
      <trkpt lat="-21.24437" lon="55.48654">
        <ele>287.0908203125</ele>
        <time>2012-12-26T05:28:30Z</time>
      </trkpt>
      <trkpt lat="-21.24453" lon="55.48671">
        <ele>287.0908203125</ele>
        <time>2012-12-26T05:28:38Z</time>
      </trkpt>
      <trkpt lat="-21.24463" lon="55.48662">
        <ele>287.0908203125</ele>
        <time>2012-12-26T05:28:50Z</time>
      </trkpt>
      <trkpt lat="-21.24477" lon="55.48649">
        <ele>286.12951660156</ele>
        <time>2012-12-26T05:29:03Z</time>
      </trkpt>
      <trkpt lat="-21.24484" lon="55.48647">
        <ele>285.16821289062</ele>
        <time>2012-12-26T05:29:12Z</time>
      </trkpt>
      <trkpt lat="-21.24492" lon="55.48641">
        <ele>283.72619628906</ele>
        <time>2012-12-26T05:29:23Z</time>
      </trkpt>
      <trkpt lat="-21.24507" lon="55.4864">
        <ele>284.20690917969</ele>
        <time>2012-12-26T05:29:35Z</time>
      </trkpt>
      <trkpt lat="-21.2452" lon="55.48644">
        <ele>284.68762207031</ele>
        <time>2012-12-26T05:29:50Z</time>
      </trkpt>
      <trkpt lat="-21.24522" lon="55.48644">
        <ele>284.68762207031</ele>
        <time>2012-12-26T05:29:51Z</time>
      </trkpt>
      <trkpt lat="-21.24537" lon="55.48652">
        <ele>284.68762207031</ele>
        <time>2012-12-26T05:30:13Z</time>
      </trkpt>
      <trkpt lat="-21.24547" lon="55.48658">
        <ele>283.72619628906</ele>
        <time>2012-12-26T05:30:29Z</time>
      </trkpt>
      <trkpt lat="-21.24561" lon="55.48662">
        <ele>283.24560546875</ele>
        <time>2012-12-26T05:30:47Z</time>
      </trkpt>
      <trkpt lat="-21.24567" lon="55.48656">
        <ele>283.24560546875</ele>
        <time>2012-12-26T05:31:04Z</time>
      </trkpt>
      <trkpt lat="-21.24569" lon="55.48642">
        <ele>283.24560546875</ele>
        <time>2012-12-26T05:31:11Z</time>
      </trkpt>
      <trkpt lat="-21.24577" lon="55.48629">
        <ele>282.76501464844</ele>
        <time>2012-12-26T05:31:27Z</time>
      </trkpt>
      <trkpt lat="-21.24602" lon="55.48608">
        <ele>282.28430175781</ele>
        <time>2012-12-26T05:31:51Z</time>
      </trkpt>
      <trkpt lat="-21.24612" lon="55.48605">
        <ele>281.80358886719</ele>
        <time>2012-12-26T05:32:06Z</time>
      </trkpt>
      <trkpt lat="-21.24623" lon="55.48599">
        <ele>282.28430175781</ele>
        <time>2012-12-26T05:32:20Z</time>
      </trkpt>
      <trkpt lat="-21.24631" lon="55.48584">
        <ele>282.28430175781</ele>
        <time>2012-12-26T05:32:42Z</time>
      </trkpt>
      <trkpt lat="-21.24635" lon="55.48581">
        <ele>282.28430175781</ele>
        <time>2012-12-26T05:32:47Z</time>
      </trkpt>
      <trkpt lat="-21.24638" lon="55.48567">
        <ele>280.84240722656</ele>
        <time>2012-12-26T05:32:59Z</time>
      </trkpt>
      <trkpt lat="-21.24642" lon="55.48555">
        <ele>281.32299804688</ele>
        <time>2012-12-26T05:33:13Z</time>
      </trkpt>
      <trkpt lat="-21.24646" lon="55.48543">
        <ele>279.880859375</ele>
        <time>2012-12-26T05:33:31Z</time>
      </trkpt>
      <trkpt lat="-21.24651" lon="55.48539">
        <ele>280.36169433594</ele>
        <time>2012-12-26T05:33:44Z</time>
      </trkpt>
      <trkpt lat="-21.24653" lon="55.48531">
        <ele>280.36169433594</ele>
        <time>2012-12-26T05:33:51Z</time>
      </trkpt>
      <trkpt lat="-21.24657" lon="55.48527">
        <ele>279.880859375</ele>
        <time>2012-12-26T05:33:56Z</time>
      </trkpt>
      <trkpt lat="-21.24659" lon="55.48522">
        <ele>279.880859375</ele>
        <time>2012-12-26T05:34:01Z</time>
      </trkpt>
      <trkpt lat="-21.2466" lon="55.48503">
        <ele>279.40026855469</ele>
        <time>2012-12-26T05:34:17Z</time>
      </trkpt>
      <trkpt lat="-21.24661" lon="55.48501">
        <ele>279.880859375</ele>
        <time>2012-12-26T05:34:19Z</time>
      </trkpt>
      <trkpt lat="-21.24662" lon="55.48495">
        <ele>279.40026855469</ele>
        <time>2012-12-26T05:34:25Z</time>
      </trkpt>
      <trkpt lat="-21.24662" lon="55.48492">
        <ele>279.40026855469</ele>
        <time>2012-12-26T05:34:27Z</time>
      </trkpt>
      <trkpt lat="-21.24663" lon="55.48487">
        <ele>279.40026855469</ele>
        <time>2012-12-26T05:34:32Z</time>
      </trkpt>
      <trkpt lat="-21.24671" lon="55.48469">
        <ele>278.91967773438</ele>
        <time>2012-12-26T05:34:50Z</time>
      </trkpt>
      <trkpt lat="-21.24676" lon="55.48456">
        <ele>277.95825195312</ele>
        <time>2012-12-26T05:35:13Z</time>
      </trkpt>
      <trkpt lat="-21.24701" lon="55.48457">
        <ele>277.47766113281</ele>
        <time>2012-12-26T05:35:31Z</time>
      </trkpt>
      <trkpt lat="-21.24709" lon="55.48445">
        <ele>277.95825195312</ele>
        <time>2012-12-26T05:35:52Z</time>
      </trkpt>
      <trkpt lat="-21.24714" lon="55.48442">
        <ele>276.9970703125</ele>
        <time>2012-12-26T05:36:10Z</time>
      </trkpt>
      <trkpt lat="-21.24727" lon="55.48438">
        <ele>277.95825195312</ele>
        <time>2012-12-26T05:36:20Z</time>
      </trkpt>
      <trkpt lat="-21.24748" lon="55.48428">
        <ele>276.51635742188</ele>
        <time>2012-12-26T05:36:45Z</time>
      </trkpt>
      <trkpt lat="-21.2475" lon="55.48426">
        <ele>276.51635742188</ele>
        <time>2012-12-26T05:36:47Z</time>
      </trkpt>
      <trkpt lat="-21.24759" lon="55.48409">
        <ele>276.51635742188</ele>
        <time>2012-12-26T05:37:10Z</time>
      </trkpt>
      <trkpt lat="-21.24772" lon="55.48394">
        <ele>276.03564453125</ele>
        <time>2012-12-26T05:37:31Z</time>
      </trkpt>
      <trkpt lat="-21.24773" lon="55.48393">
        <ele>276.03564453125</ele>
        <time>2012-12-26T05:37:32Z</time>
      </trkpt>
      <trkpt lat="-21.24776" lon="55.48385">
        <ele>275.55505371094</ele>
        <time>2012-12-26T05:37:45Z</time>
      </trkpt>
      <trkpt lat="-21.24786" lon="55.4837">
        <ele>275.55505371094</ele>
        <time>2012-12-26T05:38:01Z</time>
      </trkpt>
      <trkpt lat="-21.24791" lon="55.48346">
        <ele>275.55505371094</ele>
        <time>2012-12-26T05:38:22Z</time>
      </trkpt>
      <trkpt lat="-21.24803" lon="55.48328">
        <ele>274.59375</ele>
        <time>2012-12-26T05:38:45Z</time>
      </trkpt>
      <trkpt lat="-21.2482" lon="55.48329">
        <ele>274.11303710938</ele>
        <time>2012-12-26T05:39:02Z</time>
      </trkpt>
      <trkpt lat="-21.24836" lon="55.4834">
        <ele>275.07446289062</ele>
        <time>2012-12-26T05:39:17Z</time>
      </trkpt>
      <trkpt lat="-21.24839" lon="55.48345">
        <ele>275.07446289062</ele>
        <time>2012-12-26T05:39:40Z</time>
      </trkpt>
      <trkpt lat="-21.24848" lon="55.48353">
        <ele>275.07446289062</ele>
        <time>2012-12-26T05:40:03Z</time>
      </trkpt>
      <trkpt lat="-21.24852" lon="55.48357">
        <ele>275.07446289062</ele>
        <time>2012-12-26T05:40:38Z</time>
      </trkpt>
      <trkpt lat="-21.24855" lon="55.4836">
        <ele>275.55505371094</ele>
        <time>2012-12-26T05:41:00Z</time>
      </trkpt>
      <trkpt lat="-21.2485" lon="55.48357">
        <ele>275.07446289062</ele>
        <time>2012-12-26T05:41:23Z</time>
      </trkpt>
      <trkpt lat="-21.24874" lon="55.48363">
        <ele>274.59375</ele>
        <time>2012-12-26T05:41:46Z</time>
      </trkpt>
      <trkpt lat="-21.24884" lon="55.48372">
        <ele>274.59375</ele>
        <time>2012-12-26T05:42:04Z</time>
      </trkpt>
      <trkpt lat="-21.24876" lon="55.48367">
        <ele>275.07446289062</ele>
        <time>2012-12-26T05:42:23Z</time>
      </trkpt>
      <trkpt lat="-21.24857" lon="55.48357">
        <ele>274.59375</ele>
        <time>2012-12-26T05:42:53Z</time>
      </trkpt>
      <trkpt lat="-21.24855" lon="55.48358">
        <ele>274.59375</ele>
        <time>2012-12-26T05:43:08Z</time>
      </trkpt>
      <trkpt lat="-21.24862" lon="55.4836">
        <ele>274.59375</ele>
        <time>2012-12-26T05:43:32Z</time>
      </trkpt>
      <trkpt lat="-21.24858" lon="55.48351">
        <ele>274.59375</ele>
        <time>2012-12-26T05:43:50Z</time>
      </trkpt>
      <trkpt lat="-21.24858" lon="55.48346">
        <ele>274.11303710938</ele>
        <time>2012-12-26T05:43:57Z</time>
      </trkpt>
      <trkpt lat="-21.24851" lon="55.48319">
        <ele>276.03564453125</ele>
        <time>2012-12-26T05:44:14Z</time>
      </trkpt>
      <trkpt lat="-21.24859" lon="55.48317">
        <ele>277.95825195312</ele>
        <time>2012-12-26T05:44:26Z</time>
      </trkpt>
      <trkpt lat="-21.24865" lon="55.48319">
        <ele>280.36169433594</ele>
        <time>2012-12-26T05:44:38Z</time>
      </trkpt>
      <trkpt lat="-21.24874" lon="55.48326">
        <ele>282.76501464844</ele>
        <time>2012-12-26T05:44:51Z</time>
      </trkpt>
      <trkpt lat="-21.24871" lon="55.48331">
        <ele>284.20690917969</ele>
        <time>2012-12-26T05:44:58Z</time>
      </trkpt>
      <trkpt lat="-21.2486" lon="55.48345">
        <ele>285.64880371094</ele>
        <time>2012-12-26T05:45:12Z</time>
      </trkpt>
      <trkpt lat="-21.24856" lon="55.48357">
        <ele>286.61022949219</ele>
        <time>2012-12-26T05:45:25Z</time>
      </trkpt>
      <trkpt lat="-21.24843" lon="55.4837">
        <ele>287.57141113281</ele>
        <time>2012-12-26T05:45:35Z</time>
      </trkpt>
      <trkpt lat="-21.24835" lon="55.48374">
        <ele>289.01354980469</ele>
        <time>2012-12-26T05:45:45Z</time>
      </trkpt>
      <trkpt lat="-21.24829" lon="55.48391">
        <ele>290.45556640625</ele>
        <time>2012-12-26T05:45:56Z</time>
      </trkpt>
      <trkpt lat="-21.24818" lon="55.48403">
        <ele>291.41674804688</ele>
        <time>2012-12-26T05:46:07Z</time>
      </trkpt>
      <trkpt lat="-21.24815" lon="55.48406">
        <ele>291.41674804688</ele>
        <time>2012-12-26T05:46:11Z</time>
      </trkpt>
      <trkpt lat="-21.24811" lon="55.48409">
        <ele>290.93615722656</ele>
        <time>2012-12-26T05:46:14Z</time>
      </trkpt>
      <trkpt lat="-21.24808" lon="55.48411">
        <ele>290.93615722656</ele>
        <time>2012-12-26T05:46:16Z</time>
      </trkpt>
      <trkpt lat="-21.24805" lon="55.48415">
        <ele>290.45556640625</ele>
        <time>2012-12-26T05:46:19Z</time>
      </trkpt>
      <trkpt lat="-21.24804" lon="55.4842">
        <ele>290.93615722656</ele>
        <time>2012-12-26T05:46:24Z</time>
      </trkpt>
      <trkpt lat="-21.24813" lon="55.48426">
        <ele>292.37817382812</ele>
        <time>2012-12-26T05:46:33Z</time>
      </trkpt>
      <trkpt lat="-21.24818" lon="55.48423">
        <ele>295.26196289062</ele>
        <time>2012-12-26T05:46:47Z</time>
      </trkpt>
      <trkpt lat="-21.24827" lon="55.48425">
        <ele>299.10729980469</ele>
        <time>2012-12-26T05:47:00Z</time>
      </trkpt>
      <trkpt lat="-21.24839" lon="55.48428">
        <ele>301.51062011719</ele>
        <time>2012-12-26T05:47:12Z</time>
      </trkpt>
      <trkpt lat="-21.24839" lon="55.48435">
        <ele>302.47192382812</ele>
        <time>2012-12-26T05:47:22Z</time>
      </trkpt>
      <trkpt lat="-21.24827" lon="55.48444">
        <ele>303.91394042969</ele>
        <time>2012-12-26T05:47:35Z</time>
      </trkpt>
      <trkpt lat="-21.24827" lon="55.48461">
        <ele>305.35595703125</ele>
        <time>2012-12-26T05:47:49Z</time>
      </trkpt>
      <trkpt lat="-21.24827" lon="55.48477">
        <ele>306.7978515625</ele>
        <time>2012-12-26T05:48:03Z</time>
      </trkpt>
      <trkpt lat="-21.24823" lon="55.48488">
        <ele>308.72045898438</ele>
        <time>2012-12-26T05:48:13Z</time>
      </trkpt>
      <trkpt lat="-21.24803" lon="55.48501">
        <ele>309.68188476562</ele>
        <time>2012-12-26T05:48:26Z</time>
      </trkpt>
      <trkpt lat="-21.24806" lon="55.48507">
        <ele>311.12377929688</ele>
        <time>2012-12-26T05:48:36Z</time>
      </trkpt>
      <trkpt lat="-21.24793" lon="55.48515">
        <ele>312.56579589844</ele>
        <time>2012-12-26T05:48:49Z</time>
      </trkpt>
      <trkpt lat="-21.24784" lon="55.48534">
        <ele>314.96911621094</ele>
        <time>2012-12-26T05:49:03Z</time>
      </trkpt>
      <trkpt lat="-21.24782" lon="55.4855">
        <ele>318.33361816406</ele>
        <time>2012-12-26T05:49:17Z</time>
      </trkpt>
      <trkpt lat="-21.2478" lon="55.48558">
        <ele>320.25634765625</ele>
        <time>2012-12-26T05:49:24Z</time>
      </trkpt>
      <trkpt lat="-21.24781" lon="55.48553">
        <ele>321.2177734375</ele>
        <time>2012-12-26T05:49:30Z</time>
      </trkpt>
      <trkpt lat="-21.24782" lon="55.4855">
        <ele>322.17895507812</ele>
        <time>2012-12-26T05:49:35Z</time>
      </trkpt>
      <trkpt lat="-21.2479" lon="55.48546">
        <ele>324.1015625</ele>
        <time>2012-12-26T05:49:48Z</time>
      </trkpt>
      <trkpt lat="-21.24791" lon="55.48553">
        <ele>326.98559570312</ele>
        <time>2012-12-26T05:49:59Z</time>
      </trkpt>
      <trkpt lat="-21.24792" lon="55.48554">
        <ele>326.98559570312</ele>
        <time>2012-12-26T05:50:00Z</time>
      </trkpt>
      <trkpt lat="-21.24791" lon="55.48562">
        <ele>329.38891601562</ele>
        <time>2012-12-26T05:50:12Z</time>
      </trkpt>
      <trkpt lat="-21.24782" lon="55.4857">
        <ele>331.3115234375</ele>
        <time>2012-12-26T05:50:25Z</time>
      </trkpt>
      <trkpt lat="-21.24782" lon="55.48572">
        <ele>332.75354003906</ele>
        <time>2012-12-26T05:50:27Z</time>
      </trkpt>
      <trkpt lat="-21.24779" lon="55.48576">
        <ele>333.23413085938</ele>
        <time>2012-12-26T05:50:31Z</time>
      </trkpt>
      <trkpt lat="-21.24774" lon="55.48591">
        <ele>335.63732910156</ele>
        <time>2012-12-26T05:50:43Z</time>
      </trkpt>
      <trkpt lat="-21.24773" lon="55.486">
        <ele>339.48266601562</ele>
        <time>2012-12-26T05:50:57Z</time>
      </trkpt>
      <trkpt lat="-21.24766" lon="55.48616">
        <ele>342.36669921875</ele>
        <time>2012-12-26T05:51:17Z</time>
      </trkpt>
      <trkpt lat="-21.24748" lon="55.48635">
        <ele>345.73132324219</ele>
        <time>2012-12-26T05:51:33Z</time>
      </trkpt>
      <trkpt lat="-21.24741" lon="55.48654">
        <ele>349.09582519531</ele>
        <time>2012-12-26T05:51:49Z</time>
      </trkpt>
      <trkpt lat="-21.24732" lon="55.48661">
        <ele>351.97985839844</ele>
        <time>2012-12-26T05:52:02Z</time>
      </trkpt>
      <trkpt lat="-21.24735" lon="55.48661">
        <ele>352.94116210938</ele>
        <time>2012-12-26T05:52:07Z</time>
      </trkpt>
      <trkpt lat="-21.24746" lon="55.48652">
        <ele>356.78637695312</ele>
        <time>2012-12-26T05:52:25Z</time>
      </trkpt>
      <trkpt lat="-21.24756" lon="55.48643">
        <ele>359.18969726562</ele>
        <time>2012-12-26T05:52:41Z</time>
      </trkpt>
      <trkpt lat="-21.2476" lon="55.48642">
        <ele>360.15112304688</ele>
        <time>2012-12-26T05:52:46Z</time>
      </trkpt>
      <trkpt lat="-21.24765" lon="55.48638">
        <ele>361.59313964844</ele>
        <time>2012-12-26T05:52:53Z</time>
      </trkpt>
      <trkpt lat="-21.24761" lon="55.48642">
        <ele>363.99633789062</ele>
        <time>2012-12-26T05:53:03Z</time>
      </trkpt>
      <trkpt lat="-21.24754" lon="55.4865">
        <ele>364.47692871094</ele>
        <time>2012-12-26T05:53:07Z</time>
      </trkpt>
      <trkpt lat="-21.24758" lon="55.48663">
        <ele>366.39953613281</ele>
        <time>2012-12-26T05:53:13Z</time>
      </trkpt>
      <trkpt lat="-21.24751" lon="55.48681">
        <ele>369.76428222656</ele>
        <time>2012-12-26T05:53:32Z</time>
      </trkpt>
      <trkpt lat="-21.24736" lon="55.48692">
        <ele>372.64819335938</ele>
        <time>2012-12-26T05:53:49Z</time>
      </trkpt>
      <trkpt lat="-21.24732" lon="55.4869">
        <ele>373.60949707031</ele>
        <time>2012-12-26T05:53:53Z</time>
      </trkpt>
      <trkpt lat="-21.24724" lon="55.48688">
        <ele>374.57080078125</ele>
        <time>2012-12-26T05:53:59Z</time>
      </trkpt>
      <trkpt lat="-21.24714" lon="55.48698">
        <ele>376.49353027344</ele>
        <time>2012-12-26T05:54:11Z</time>
      </trkpt>
      <trkpt lat="-21.24708" lon="55.48699">
        <ele>376.49353027344</ele>
        <time>2012-12-26T05:54:15Z</time>
      </trkpt>
      <trkpt lat="-21.24699" lon="55.48711">
        <ele>377.45483398438</ele>
        <time>2012-12-26T05:54:26Z</time>
      </trkpt>
      <trkpt lat="-21.24691" lon="55.48715">
        <ele>377.45483398438</ele>
        <time>2012-12-26T05:54:30Z</time>
      </trkpt>
      <trkpt lat="-21.24687" lon="55.48712">
        <ele>378.41613769531</ele>
        <time>2012-12-26T05:54:34Z</time>
      </trkpt>
      <trkpt lat="-21.24674" lon="55.48715">
        <ele>380.81945800781</ele>
        <time>2012-12-26T05:54:49Z</time>
      </trkpt>
      <trkpt lat="-21.24658" lon="55.4873">
        <ele>384.18408203125</ele>
        <time>2012-12-26T05:55:09Z</time>
      </trkpt>
      <trkpt lat="-21.24658" lon="55.48731">
        <ele>385.14538574219</ele>
        <time>2012-12-26T05:55:15Z</time>
      </trkpt>
      <trkpt lat="-21.24662" lon="55.48731">
        <ele>386.58740234375</ele>
        <time>2012-12-26T05:55:21Z</time>
      </trkpt>
      <trkpt lat="-21.24671" lon="55.48733">
        <ele>388.029296875</ele>
        <time>2012-12-26T05:55:30Z</time>
      </trkpt>
      <trkpt lat="-21.24684" lon="55.48734">
        <ele>389.95190429688</ele>
        <time>2012-12-26T05:55:42Z</time>
      </trkpt>
      <trkpt lat="-21.24689" lon="55.48736">
        <ele>392.35534667969</ele>
        <time>2012-12-26T05:55:51Z</time>
      </trkpt>
      <trkpt lat="-21.24679" lon="55.48745">
        <ele>394.27795410156</ele>
        <time>2012-12-26T05:56:04Z</time>
      </trkpt>
      <trkpt lat="-21.24675" lon="55.48747">
        <ele>394.27795410156</ele>
        <time>2012-12-26T05:56:08Z</time>
      </trkpt>
      <trkpt lat="-21.24661" lon="55.48752">
        <ele>397.16174316406</ele>
        <time>2012-12-26T05:56:20Z</time>
      </trkpt>
      <trkpt lat="-21.24665" lon="55.48756">
        <ele>400.0458984375</ele>
        <time>2012-12-26T05:56:36Z</time>
      </trkpt>
      <trkpt lat="-21.24671" lon="55.48758">
        <ele>401.48779296875</ele>
        <time>2012-12-26T05:56:45Z</time>
      </trkpt>
      <trkpt lat="-21.24692" lon="55.48757">
        <ele>404.37170410156</ele>
        <time>2012-12-26T05:57:00Z</time>
      </trkpt>
      <trkpt lat="-21.2469" lon="55.48766">
        <ele>407.25561523438</ele>
        <time>2012-12-26T05:57:14Z</time>
      </trkpt>
      <trkpt lat="-21.24684" lon="55.48771">
        <ele>409.17834472656</ele>
        <time>2012-12-26T05:57:26Z</time>
      </trkpt>
      <trkpt lat="-21.24681" lon="55.48778">
        <ele>411.58166503906</ele>
        <time>2012-12-26T05:57:37Z</time>
      </trkpt>
      <trkpt lat="-21.24693" lon="55.48776">
        <ele>412.54284667969</ele>
        <time>2012-12-26T05:57:47Z</time>
      </trkpt>
      <trkpt lat="-21.24693" lon="55.48782">
        <ele>415.90747070312</ele>
        <time>2012-12-26T05:58:00Z</time>
      </trkpt>
      <trkpt lat="-21.24689" lon="55.48785">
        <ele>417.349609375</ele>
        <time>2012-12-26T05:58:03Z</time>
      </trkpt>
      <trkpt lat="-21.24688" lon="55.48786">
        <ele>416.38818359375</ele>
        <time>2012-12-26T05:58:04Z</time>
      </trkpt>
      <trkpt lat="-21.24673" lon="55.48795">
        <ele>419.27221679688</ele>
        <time>2012-12-26T05:58:19Z</time>
      </trkpt>
      <trkpt lat="-21.24672" lon="55.48795">
        <ele>419.27221679688</ele>
        <time>2012-12-26T05:58:20Z</time>
      </trkpt>
      <trkpt lat="-21.2467" lon="55.48796">
        <ele>419.27221679688</ele>
        <time>2012-12-26T05:58:22Z</time>
      </trkpt>
      <trkpt lat="-21.24665" lon="55.48802">
        <ele>421.19482421875</ele>
        <time>2012-12-26T05:58:32Z</time>
      </trkpt>
      <trkpt lat="-21.24676" lon="55.488">
        <ele>424.55944824219</ele>
        <time>2012-12-26T05:58:46Z</time>
      </trkpt>
      <trkpt lat="-21.24681" lon="55.488">
        <ele>425.04016113281</ele>
        <time>2012-12-26T05:58:53Z</time>
      </trkpt>
      <trkpt lat="-21.24685" lon="55.48799">
        <ele>426.00134277344</ele>
        <time>2012-12-26T05:58:57Z</time>
      </trkpt>
      <trkpt lat="-21.24692" lon="55.48799">
        <ele>428.40466308594</ele>
        <time>2012-12-26T05:59:05Z</time>
      </trkpt>
      <trkpt lat="-21.24703" lon="55.48801">
        <ele>430.32727050781</ele>
        <time>2012-12-26T05:59:16Z</time>
      </trkpt>
      <trkpt lat="-21.24708" lon="55.48803">
        <ele>432.73071289062</ele>
        <time>2012-12-26T05:59:32Z</time>
      </trkpt>
      <trkpt lat="-21.24706" lon="55.48804">
        <ele>432.25</ele>
        <time>2012-12-26T05:59:34Z</time>
      </trkpt>
      <trkpt lat="-21.24707" lon="55.48811">
        <ele>434.17260742188</ele>
        <time>2012-12-26T05:59:37Z</time>
      </trkpt>
      <trkpt lat="-21.24707" lon="55.48811">
        <ele>433.21130371094</ele>
        <time>2012-12-26T05:59:38Z</time>
      </trkpt>
      <trkpt lat="-21.24683" lon="55.48813">
        <ele>436.09521484375</ele>
        <time>2012-12-26T05:59:54Z</time>
      </trkpt>
      <trkpt lat="-21.24671" lon="55.48823">
        <ele>438.49853515625</ele>
        <time>2012-12-26T06:00:09Z</time>
      </trkpt>
      <trkpt lat="-21.24659" lon="55.48826">
        <ele>442.34387207031</ele>
        <time>2012-12-26T06:00:24Z</time>
      </trkpt>
      <trkpt lat="-21.24658" lon="55.48826">
        <ele>442.34387207031</ele>
        <time>2012-12-26T06:00:25Z</time>
      </trkpt>
      <trkpt lat="-21.24646" lon="55.48826">
        <ele>443.30505371094</ele>
        <time>2012-12-26T06:00:32Z</time>
      </trkpt>
      <trkpt lat="-21.2463" lon="55.48822">
        <ele>445.22766113281</ele>
        <time>2012-12-26T06:00:43Z</time>
      </trkpt>
      <trkpt lat="-21.24625" lon="55.48837">
        <ele>447.63098144531</ele>
        <time>2012-12-26T06:00:57Z</time>
      </trkpt>
      <trkpt lat="-21.24623" lon="55.48843">
        <ele>448.59240722656</ele>
        <time>2012-12-26T06:01:02Z</time>
      </trkpt>
      <trkpt lat="-21.24624" lon="55.48841">
        <ele>450.03442382812</ele>
        <time>2012-12-26T06:01:06Z</time>
      </trkpt>
      <trkpt lat="-21.24627" lon="55.4884">
        <ele>451.95703125</ele>
        <time>2012-12-26T06:01:13Z</time>
      </trkpt>
      <trkpt lat="-21.24632" lon="55.48844">
        <ele>454.36022949219</ele>
        <time>2012-12-26T06:01:20Z</time>
      </trkpt>
      <trkpt lat="-21.24637" lon="55.48848">
        <ele>455.32153320312</ele>
        <time>2012-12-26T06:01:25Z</time>
      </trkpt>
      <trkpt lat="-21.24653" lon="55.48851">
        <ele>452.43762207031</ele>
        <time>2012-12-26T06:01:40Z</time>
      </trkpt>
      <trkpt lat="-21.24654" lon="55.48851">
        <ele>457.72497558594</ele>
        <time>2012-12-26T06:01:41Z</time>
      </trkpt>
      <trkpt lat="-21.24655" lon="55.48851">
        <ele>457.72497558594</ele>
        <time>2012-12-26T06:01:42Z</time>
      </trkpt>
      <trkpt lat="-21.24658" lon="55.48851">
        <ele>455.80224609375</ele>
        <time>2012-12-26T06:01:44Z</time>
      </trkpt>
      <trkpt lat="-21.24683" lon="55.48854">
        <ele>458.20556640625</ele>
        <time>2012-12-26T06:01:59Z</time>
      </trkpt>
      <trkpt lat="-21.24695" lon="55.48851">
        <ele>461.08947753906</ele>
        <time>2012-12-26T06:02:12Z</time>
      </trkpt>
      <trkpt lat="-21.24703" lon="55.48854">
        <ele>464.93481445312</ele>
        <time>2012-12-26T06:02:24Z</time>
      </trkpt>
      <trkpt lat="-21.24707" lon="55.48858">
        <ele>466.37670898438</ele>
        <time>2012-12-26T06:02:30Z</time>
      </trkpt>
      <trkpt lat="-21.24717" lon="55.4886">
        <ele>468.29931640625</ele>
        <time>2012-12-26T06:02:42Z</time>
      </trkpt>
      <trkpt lat="-21.24721" lon="55.48859">
        <ele>470.22192382812</ele>
        <time>2012-12-26T06:02:52Z</time>
      </trkpt>
      <trkpt lat="-21.24723" lon="55.4886">
        <ele>471.18334960938</ele>
        <time>2012-12-26T06:02:54Z</time>
      </trkpt>
      <trkpt lat="-21.24728" lon="55.48867">
        <ele>474.06726074219</ele>
        <time>2012-12-26T06:03:04Z</time>
      </trkpt>
      <trkpt lat="-21.2474" lon="55.48872">
        <ele>475.50927734375</ele>
        <time>2012-12-26T06:03:14Z</time>
      </trkpt>
      <trkpt lat="-21.24765" lon="55.48876">
        <ele>478.87390136719</ele>
        <time>2012-12-26T06:03:27Z</time>
      </trkpt>
      <trkpt lat="-21.24777" lon="55.48876">
        <ele>482.23852539062</ele>
        <time>2012-12-26T06:03:39Z</time>
      </trkpt>
      <trkpt lat="-21.24789" lon="55.4887">
        <ele>486.08374023438</ele>
        <time>2012-12-26T06:03:50Z</time>
      </trkpt>
      <trkpt lat="-21.24793" lon="55.48869">
        <ele>487.04504394531</ele>
        <time>2012-12-26T06:03:55Z</time>
      </trkpt>
      <trkpt lat="-21.24807" lon="55.48869">
        <ele>488.48718261719</ele>
        <time>2012-12-26T06:04:07Z</time>
      </trkpt>
      <trkpt lat="-21.24807" lon="55.48868">
        <ele>488.9677734375</ele>
        <time>2012-12-26T06:04:08Z</time>
      </trkpt>
      <trkpt lat="-21.24814" lon="55.48846">
        <ele>490.40979003906</ele>
        <time>2012-12-26T06:04:25Z</time>
      </trkpt>
      <trkpt lat="-21.24819" lon="55.48841">
        <ele>491.85168457031</ele>
        <time>2012-12-26T06:04:32Z</time>
      </trkpt>
      <trkpt lat="-21.24826" lon="55.48834">
        <ele>494.25500488281</ele>
        <time>2012-12-26T06:04:42Z</time>
      </trkpt>
      <trkpt lat="-21.2483" lon="55.48823">
        <ele>496.65832519531</ele>
        <time>2012-12-26T06:04:54Z</time>
      </trkpt>
      <trkpt lat="-21.24844" lon="55.4882">
        <ele>500.02294921875</ele>
        <time>2012-12-26T06:05:05Z</time>
      </trkpt>
      <trkpt lat="-21.24853" lon="55.48814">
        <ele>502.42614746094</ele>
        <time>2012-12-26T06:05:16Z</time>
      </trkpt>
      <trkpt lat="-21.24857" lon="55.48813">
        <ele>503.38745117188</ele>
        <time>2012-12-26T06:05:20Z</time>
      </trkpt>
      <trkpt lat="-21.24857" lon="55.48817">
        <ele>506.75207519531</ele>
        <time>2012-12-26T06:05:32Z</time>
      </trkpt>
      <trkpt lat="-21.24855" lon="55.48828">
        <ele>508.19409179688</ele>
        <time>2012-12-26T06:05:40Z</time>
      </trkpt>
      <trkpt lat="-21.24856" lon="55.48836">
        <ele>510.11669921875</ele>
        <time>2012-12-26T06:05:45Z</time>
      </trkpt>
      <trkpt lat="-21.24852" lon="55.48853">
        <ele>512.52001953125</ele>
        <time>2012-12-26T06:05:59Z</time>
      </trkpt>
      <trkpt lat="-21.24839" lon="55.48851">
        <ele>516.365234375</ele>
        <time>2012-12-26T06:06:17Z</time>
      </trkpt>
      <trkpt lat="-21.24849" lon="55.48851">
        <ele>517.32666015625</ele>
        <time>2012-12-26T06:06:24Z</time>
      </trkpt>
      <trkpt lat="-21.24863" lon="55.48844">
        <ele>517.80725097656</ele>
        <time>2012-12-26T06:06:38Z</time>
      </trkpt>
      <trkpt lat="-21.24866" lon="55.4884">
        <ele>519.72985839844</ele>
        <time>2012-12-26T06:06:45Z</time>
      </trkpt>
      <trkpt lat="-21.2487" lon="55.48835">
        <ele>521.17199707031</ele>
        <time>2012-12-26T06:06:51Z</time>
      </trkpt>
      <trkpt lat="-21.24877" lon="55.48827">
        <ele>522.13317871094</ele>
        <time>2012-12-26T06:06:59Z</time>
      </trkpt>
      <trkpt lat="-21.24879" lon="55.48822">
        <ele>523.09460449219</ele>
        <time>2012-12-26T06:07:04Z</time>
      </trkpt>
      <trkpt lat="-21.24884" lon="55.48816">
        <ele>525.49780273438</ele>
        <time>2012-12-26T06:07:13Z</time>
      </trkpt>
      <trkpt lat="-21.24893" lon="55.48806">
        <ele>528.3818359375</ele>
        <time>2012-12-26T06:07:26Z</time>
      </trkpt>
      <trkpt lat="-21.24911" lon="55.48802">
        <ele>531.26574707031</ele>
        <time>2012-12-26T06:07:44Z</time>
      </trkpt>
      <trkpt lat="-21.24916" lon="55.48796">
        <ele>533.18835449219</ele>
        <time>2012-12-26T06:07:52Z</time>
      </trkpt>
      <trkpt lat="-21.24918" lon="55.48795">
        <ele>533.18835449219</ele>
        <time>2012-12-26T06:07:54Z</time>
      </trkpt>
      <trkpt lat="-21.24926" lon="55.48791">
        <ele>536.55310058594</ele>
        <time>2012-12-26T06:08:10Z</time>
      </trkpt>
      <trkpt lat="-21.24925" lon="55.48794">
        <ele>537.03369140625</ele>
        <time>2012-12-26T06:08:14Z</time>
      </trkpt>
      <trkpt lat="-21.24914" lon="55.48808">
        <ele>538.95629882812</ele>
        <time>2012-12-26T06:08:32Z</time>
      </trkpt>
      <trkpt lat="-21.24908" lon="55.48813">
        <ele>540.87890625</ele>
        <time>2012-12-26T06:08:43Z</time>
      </trkpt>
      <trkpt lat="-21.24901" lon="55.48834">
        <ele>544.72424316406</ele>
        <time>2012-12-26T06:09:00Z</time>
      </trkpt>
      <trkpt lat="-21.24901" lon="55.48847">
        <ele>547.60815429688</ele>
        <time>2012-12-26T06:09:13Z</time>
      </trkpt>
      <trkpt lat="-21.24893" lon="55.48861">
        <ele>548.5693359375</ele>
        <time>2012-12-26T06:09:25Z</time>
      </trkpt>
      <trkpt lat="-21.2489" lon="55.48874">
        <ele>549.53076171875</ele>
        <time>2012-12-26T06:09:33Z</time>
      </trkpt>
      <trkpt lat="-21.24891" lon="55.48879">
        <ele>549.05004882812</ele>
        <time>2012-12-26T06:09:35Z</time>
      </trkpt>
      <trkpt lat="-21.2488" lon="55.48884">
        <ele>550.4921875</ele>
        <time>2012-12-26T06:09:48Z</time>
      </trkpt>
      <trkpt lat="-21.24844" lon="55.48864">
        <ele>551.93408203125</ele>
        <time>2012-12-26T06:09:54Z</time>
      </trkpt>
      <trkpt lat="-21.24831" lon="55.48884">
        <ele>554.81787109375</ele>
        <time>2012-12-26T06:10:06Z</time>
      </trkpt>
      <trkpt lat="-21.24826" lon="55.48906">
        <ele>557.7021484375</ele>
        <time>2012-12-26T06:10:25Z</time>
      </trkpt>
      <trkpt lat="-21.24824" lon="55.48887">
        <ele>557.22143554688</ele>
        <time>2012-12-26T06:10:54Z</time>
      </trkpt>
      <trkpt lat="-21.24827" lon="55.48888">
        <ele>558.18286132812</ele>
        <time>2012-12-26T06:11:01Z</time>
      </trkpt>
      <trkpt lat="-21.24831" lon="55.48892">
        <ele>558.66333007812</ele>
        <time>2012-12-26T06:11:13Z</time>
      </trkpt>
      <trkpt lat="-21.24847" lon="55.48903">
        <ele>561.06665039062</ele>
        <time>2012-12-26T06:11:33Z</time>
      </trkpt>
      <trkpt lat="-21.24836" lon="55.48923">
        <ele>563.95043945312</ele>
        <time>2012-12-26T06:11:49Z</time>
      </trkpt>
      <trkpt lat="-21.24825" lon="55.48932">
        <ele>565.87329101562</ele>
        <time>2012-12-26T06:12:01Z</time>
      </trkpt>
      <trkpt lat="-21.24807" lon="55.48944">
        <ele>568.75708007812</ele>
        <time>2012-12-26T06:12:26Z</time>
      </trkpt>
      <trkpt lat="-21.24841" lon="55.48904">
        <ele>572.12182617188</ele>
        <time>2012-12-26T06:12:54Z</time>
      </trkpt>
      <trkpt lat="-21.24821" lon="55.4894">
        <ele>574.52514648438</ele>
        <time>2012-12-26T06:13:17Z</time>
      </trkpt>
      <trkpt lat="-21.24801" lon="55.48934">
        <ele>576.92846679688</ele>
        <time>2012-12-26T06:13:32Z</time>
      </trkpt>
      <trkpt lat="-21.24799" lon="55.48933">
        <ele>577.8896484375</ele>
        <time>2012-12-26T06:13:34Z</time>
      </trkpt>
      <trkpt lat="-21.24769" lon="55.48934">
        <ele>579.81225585938</ele>
        <time>2012-12-26T06:13:52Z</time>
      </trkpt>
      <trkpt lat="-21.24733" lon="55.48948">
        <ele>581.73486328125</ele>
        <time>2012-12-26T06:14:12Z</time>
      </trkpt>
      <trkpt lat="-21.247" lon="55.48981">
        <ele>583.65747070312</ele>
        <time>2012-12-26T06:14:34Z</time>
      </trkpt>
      <trkpt lat="-21.24683" lon="55.49017">
        <ele>585.580078125</ele>
        <time>2012-12-26T06:14:54Z</time>
      </trkpt>
      <trkpt lat="-21.24679" lon="55.49027">
        <ele>586.06079101562</ele>
        <time>2012-12-26T06:15:01Z</time>
      </trkpt>
      <trkpt lat="-21.24676" lon="55.49034">
        <ele>586.54150390625</ele>
        <time>2012-12-26T06:15:05Z</time>
      </trkpt>
      <trkpt lat="-21.2466" lon="55.49076">
        <ele>588.94506835938</ele>
        <time>2012-12-26T06:15:31Z</time>
      </trkpt>
      <trkpt lat="-21.24653" lon="55.49099">
        <ele>590.38696289062</ele>
        <time>2012-12-26T06:15:47Z</time>
      </trkpt>
      <trkpt lat="-21.24639" lon="55.49119">
        <ele>592.3095703125</ele>
        <time>2012-12-26T06:16:04Z</time>
      </trkpt>
      <trkpt lat="-21.24633" lon="55.49123">
        <ele>592.3095703125</ele>
        <time>2012-12-26T06:16:09Z</time>
      </trkpt>
      <trkpt lat="-21.24624" lon="55.49121">
        <ele>593.27075195312</ele>
        <time>2012-12-26T06:16:15Z</time>
      </trkpt>
      <trkpt lat="-21.24616" lon="55.49119">
        <ele>595.193359375</ele>
        <time>2012-12-26T06:16:22Z</time>
      </trkpt>
      <trkpt lat="-21.24598" lon="55.49126">
        <ele>596.15478515625</ele>
        <time>2012-12-26T06:16:34Z</time>
      </trkpt>
      <trkpt lat="-21.24592" lon="55.49132">
        <ele>597.11596679688</ele>
        <time>2012-12-26T06:16:40Z</time>
      </trkpt>
      <trkpt lat="-21.2458" lon="55.49155">
        <ele>599.51928710938</ele>
        <time>2012-12-26T06:16:59Z</time>
      </trkpt>
      <trkpt lat="-21.24575" lon="55.49181">
        <ele>601.44189453125</ele>
        <time>2012-12-26T06:17:14Z</time>
      </trkpt>
      <trkpt lat="-21.24571" lon="55.49211">
        <ele>603.84521484375</ele>
        <time>2012-12-26T06:17:34Z</time>
      </trkpt>
      <trkpt lat="-21.24556" lon="55.49222">
        <ele>607.2099609375</ele>
        <time>2012-12-26T06:17:48Z</time>
      </trkpt>
      <trkpt lat="-21.24553" lon="55.49223">
        <ele>607.2099609375</ele>
        <time>2012-12-26T06:17:50Z</time>
      </trkpt>
      <trkpt lat="-21.24532" lon="55.49224">
        <ele>608.65185546875</ele>
        <time>2012-12-26T06:18:05Z</time>
      </trkpt>
      <trkpt lat="-21.24506" lon="55.49228">
        <ele>610.09375</ele>
        <time>2012-12-26T06:18:24Z</time>
      </trkpt>
      <trkpt lat="-21.24474" lon="55.49234">
        <ele>611.05517578125</ele>
        <time>2012-12-26T06:18:47Z</time>
      </trkpt>
      <trkpt lat="-21.2446" lon="55.49243">
        <ele>611.05517578125</ele>
        <time>2012-12-26T06:19:04Z</time>
      </trkpt>
      <trkpt lat="-21.24444" lon="55.49252">
        <ele>611.53588867188</ele>
        <time>2012-12-26T06:19:21Z</time>
      </trkpt>
      <trkpt lat="-21.24409" lon="55.49254">
        <ele>611.05517578125</ele>
        <time>2012-12-26T06:19:44Z</time>
      </trkpt>
      <trkpt lat="-21.24381" lon="55.4925">
        <ele>612.0166015625</ele>
        <time>2012-12-26T06:20:02Z</time>
      </trkpt>
      <trkpt lat="-21.24361" lon="55.49235">
        <ele>612.0166015625</ele>
        <time>2012-12-26T06:20:19Z</time>
      </trkpt>
      <trkpt lat="-21.24352" lon="55.49229">
        <ele>613.45849609375</ele>
        <time>2012-12-26T06:20:27Z</time>
      </trkpt>
      <trkpt lat="-21.24328" lon="55.49239">
        <ele>615.38110351562</ele>
        <time>2012-12-26T06:20:46Z</time>
      </trkpt>
      <trkpt lat="-21.24313" lon="55.49265">
        <ele>617.3037109375</ele>
        <time>2012-12-26T06:21:06Z</time>
      </trkpt>
      <trkpt lat="-21.24307" lon="55.49292">
        <ele>619.70703125</ele>
        <time>2012-12-26T06:21:23Z</time>
      </trkpt>
      <trkpt lat="-21.24304" lon="55.49308">
        <ele>621.62963867188</ele>
        <time>2012-12-26T06:21:35Z</time>
      </trkpt>
      <trkpt lat="-21.24303" lon="55.49309">
        <ele>622.1103515625</ele>
        <time>2012-12-26T06:21:36Z</time>
      </trkpt>
      <trkpt lat="-21.24302" lon="55.49316">
        <ele>623.07177734375</ele>
        <time>2012-12-26T06:21:41Z</time>
      </trkpt>
      <trkpt lat="-21.24297" lon="55.49328">
        <ele>624.99438476562</ele>
        <time>2012-12-26T06:21:49Z</time>
      </trkpt>
      <trkpt lat="-21.24295" lon="55.49336">
        <ele>626.43627929688</ele>
        <time>2012-12-26T06:21:56Z</time>
      </trkpt>
      <trkpt lat="-21.24291" lon="55.4934">
        <ele>628.83959960938</ele>
        <time>2012-12-26T06:22:03Z</time>
      </trkpt>
      <trkpt lat="-21.2429" lon="55.49345">
        <ele>628.83959960938</ele>
        <time>2012-12-26T06:22:07Z</time>
      </trkpt>
      <trkpt lat="-21.2429" lon="55.49348">
        <ele>629.80078125</ele>
        <time>2012-12-26T06:22:09Z</time>
      </trkpt>
      <trkpt lat="-21.24286" lon="55.49359">
        <ele>633.16528320312</ele>
        <time>2012-12-26T06:22:18Z</time>
      </trkpt>
      <trkpt lat="-21.24283" lon="55.49372">
        <ele>636.5302734375</ele>
        <time>2012-12-26T06:22:29Z</time>
      </trkpt>
      <trkpt lat="-21.24281" lon="55.49376">
        <ele>637.49145507812</ele>
        <time>2012-12-26T06:22:32Z</time>
      </trkpt>
      <trkpt lat="-21.2428" lon="55.49382">
        <ele>639.4140625</ele>
        <time>2012-12-26T06:22:36Z</time>
      </trkpt>
      <trkpt lat="-21.2428" lon="55.49392">
        <ele>641.33666992188</ele>
        <time>2012-12-26T06:22:42Z</time>
      </trkpt>
      <trkpt lat="-21.2428" lon="55.49402">
        <ele>644.701171875</ele>
        <time>2012-12-26T06:22:51Z</time>
      </trkpt>
      <trkpt lat="-21.24277" lon="55.49411">
        <ele>646.14331054688</ele>
        <time>2012-12-26T06:22:59Z</time>
      </trkpt>
      <trkpt lat="-21.24271" lon="55.49413">
        <ele>646.6240234375</ele>
        <time>2012-12-26T06:23:05Z</time>
      </trkpt>
      <trkpt lat="-21.24265" lon="55.49405">
        <ele>645.18188476562</ele>
        <time>2012-12-26T06:23:20Z</time>
      </trkpt>
      <trkpt lat="-21.2425" lon="55.49391">
        <ele>642.29809570312</ele>
        <time>2012-12-26T06:23:35Z</time>
      </trkpt>
      <trkpt lat="-21.24244" lon="55.49386">
        <ele>642.29809570312</ele>
        <time>2012-12-26T06:23:39Z</time>
      </trkpt>
      <trkpt lat="-21.24239" lon="55.49384">
        <ele>642.29809570312</ele>
        <time>2012-12-26T06:23:44Z</time>
      </trkpt>
      <trkpt lat="-21.24231" lon="55.49374">
        <ele>640.85595703125</ele>
        <time>2012-12-26T06:23:56Z</time>
      </trkpt>
      <trkpt lat="-21.24207" lon="55.49356">
        <ele>640.85595703125</ele>
        <time>2012-12-26T06:24:18Z</time>
      </trkpt>
      <trkpt lat="-21.24182" lon="55.49338">
        <ele>642.77880859375</ele>
        <time>2012-12-26T06:24:38Z</time>
      </trkpt>
      <trkpt lat="-21.24163" lon="55.49325">
        <ele>645.66259765625</ele>
        <time>2012-12-26T06:24:54Z</time>
      </trkpt>
      <trkpt lat="-21.24155" lon="55.49298">
        <ele>643.73999023438</ele>
        <time>2012-12-26T06:25:13Z</time>
      </trkpt>
      <trkpt lat="-21.24138" lon="55.49282">
        <ele>645.18188476562</ele>
        <time>2012-12-26T06:25:28Z</time>
      </trkpt>
      <trkpt lat="-21.2411" lon="55.49265">
        <ele>644.701171875</ele>
        <time>2012-12-26T06:25:50Z</time>
      </trkpt>
      <trkpt lat="-21.24083" lon="55.49245">
        <ele>643.25927734375</ele>
        <time>2012-12-26T06:26:12Z</time>
      </trkpt>
      <trkpt lat="-21.24081" lon="55.49245">
        <ele>643.73999023438</ele>
        <time>2012-12-26T06:26:13Z</time>
      </trkpt>
      <trkpt lat="-21.24078" lon="55.4925">
        <ele>644.701171875</ele>
        <time>2012-12-26T06:26:19Z</time>
      </trkpt>
      <trkpt lat="-21.24079" lon="55.49253">
        <ele>645.18188476562</ele>
        <time>2012-12-26T06:26:22Z</time>
      </trkpt>
      <trkpt lat="-21.24081" lon="55.4926">
        <ele>646.14331054688</ele>
        <time>2012-12-26T06:26:26Z</time>
      </trkpt>
      <trkpt lat="-21.24067" lon="55.49285">
        <ele>649.02709960938</ele>
        <time>2012-12-26T06:26:46Z</time>
      </trkpt>
      <trkpt lat="-21.24056" lon="55.49288">
        <ele>650.46923828125</ele>
        <time>2012-12-26T06:26:58Z</time>
      </trkpt>
      <trkpt lat="-21.24045" lon="55.49291">
        <ele>650.94970703125</ele>
        <time>2012-12-26T06:27:13Z</time>
      </trkpt>
      <trkpt lat="-21.24042" lon="55.49293">
        <ele>652.39184570312</ele>
        <time>2012-12-26T06:27:15Z</time>
      </trkpt>
      <trkpt lat="-21.24032" lon="55.49295">
        <ele>652.87255859375</ele>
        <time>2012-12-26T06:27:24Z</time>
      </trkpt>
      <trkpt lat="-21.24024" lon="55.49298">
        <ele>653.833984375</ele>
        <time>2012-12-26T06:27:29Z</time>
      </trkpt>
      <trkpt lat="-21.24007" lon="55.49303">
        <ele>655.75659179688</ele>
        <time>2012-12-26T06:27:43Z</time>
      </trkpt>
      <trkpt lat="-21.24005" lon="55.49303">
        <ele>655.75659179688</ele>
        <time>2012-12-26T06:27:44Z</time>
      </trkpt>
      <trkpt lat="-21.24" lon="55.49309">
        <ele>657.19848632812</ele>
        <time>2012-12-26T06:27:51Z</time>
      </trkpt>
      <trkpt lat="-21.23998" lon="55.49313">
        <ele>656.7177734375</ele>
        <time>2012-12-26T06:27:54Z</time>
      </trkpt>
      <trkpt lat="-21.24" lon="55.49321">
        <ele>657.19848632812</ele>
        <time>2012-12-26T06:28:00Z</time>
      </trkpt>
      <trkpt lat="-21.24" lon="55.49324">
        <ele>656.7177734375</ele>
        <time>2012-12-26T06:28:02Z</time>
      </trkpt>
      <trkpt lat="-21.24007" lon="55.49342">
        <ele>658.64038085938</ele>
        <time>2012-12-26T06:28:14Z</time>
      </trkpt>
      <trkpt lat="-21.24002" lon="55.4935">
        <ele>659.60180664062</ele>
        <time>2012-12-26T06:28:24Z</time>
      </trkpt>
      <trkpt lat="-21.24002" lon="55.49357">
        <ele>660.08227539062</ele>
        <time>2012-12-26T06:28:33Z</time>
      </trkpt>
      <trkpt lat="-21.24006" lon="55.49369">
        <ele>662.96630859375</ele>
        <time>2012-12-26T06:28:45Z</time>
      </trkpt>
      <trkpt lat="-21.24007" lon="55.4937">
        <ele>662.96630859375</ele>
        <time>2012-12-26T06:28:51Z</time>
      </trkpt>
      <trkpt lat="-21.24008" lon="55.49374">
        <ele>663.92749023438</ele>
        <time>2012-12-26T06:28:55Z</time>
      </trkpt>
      <trkpt lat="-21.24002" lon="55.49385">
        <ele>666.33081054688</ele>
        <time>2012-12-26T06:29:06Z</time>
      </trkpt>
      <trkpt lat="-21.23997" lon="55.49388">
        <ele>666.8115234375</ele>
        <time>2012-12-26T06:29:10Z</time>
      </trkpt>
      <trkpt lat="-21.23976" lon="55.49401">
        <ele>669.69580078125</ele>
        <time>2012-12-26T06:29:29Z</time>
      </trkpt>
      <trkpt lat="-21.23971" lon="55.49405">
        <ele>671.1376953125</ele>
        <time>2012-12-26T06:29:35Z</time>
      </trkpt>
      <trkpt lat="-21.23973" lon="55.49412">
        <ele>672.09887695312</ele>
        <time>2012-12-26T06:29:40Z</time>
      </trkpt>
      <trkpt lat="-21.24023" lon="55.49434">
        <ele>675.46337890625</ele>
        <time>2012-12-26T06:30:19Z</time>
      </trkpt>
      <trkpt lat="-21.24023" lon="55.49435">
        <ele>675.46337890625</ele>
        <time>2012-12-26T06:30:20Z</time>
      </trkpt>
      <trkpt lat="-21.24035" lon="55.49441">
        <ele>675.94409179688</ele>
        <time>2012-12-26T06:30:40Z</time>
      </trkpt>
      <trkpt lat="-21.24041" lon="55.49444">
        <ele>675.94409179688</ele>
        <time>2012-12-26T06:30:55Z</time>
      </trkpt>
      <trkpt lat="-21.24054" lon="55.49448">
        <ele>676.4248046875</ele>
        <time>2012-12-26T06:31:12Z</time>
      </trkpt>
      <trkpt lat="-21.2406" lon="55.49447">
        <ele>676.4248046875</ele>
        <time>2012-12-26T06:31:20Z</time>
      </trkpt>
      <trkpt lat="-21.24065" lon="55.49448">
        <ele>677.38623046875</ele>
        <time>2012-12-26T06:31:24Z</time>
      </trkpt>
      <trkpt lat="-21.24074" lon="55.49463">
        <ele>678.828125</ele>
        <time>2012-12-26T06:31:39Z</time>
      </trkpt>
      <trkpt lat="-21.24074" lon="55.49467">
        <ele>678.34741210938</ele>
        <time>2012-12-26T06:31:52Z</time>
      </trkpt>
      <trkpt lat="-21.24074" lon="55.49473">
        <ele>678.34741210938</ele>
        <time>2012-12-26T06:32:02Z</time>
      </trkpt>
      <trkpt lat="-21.2407" lon="55.49491">
        <ele>680.75073242188</ele>
        <time>2012-12-26T06:32:15Z</time>
      </trkpt>
      <trkpt lat="-21.24067" lon="55.49504">
        <ele>681.7119140625</ele>
        <time>2012-12-26T06:32:24Z</time>
      </trkpt>
      <trkpt lat="-21.24067" lon="55.49506">
        <ele>681.2314453125</ele>
        <time>2012-12-26T06:32:26Z</time>
      </trkpt>
      <trkpt lat="-21.24071" lon="55.49511">
        <ele>682.67333984375</ele>
        <time>2012-12-26T06:32:32Z</time>
      </trkpt>
      <trkpt lat="-21.24071" lon="55.49516">
        <ele>682.67333984375</ele>
        <time>2012-12-26T06:32:35Z</time>
      </trkpt>
      <trkpt lat="-21.24066" lon="55.49535">
        <ele>686.51879882812</ele>
        <time>2012-12-26T06:32:51Z</time>
      </trkpt>
      <trkpt lat="-21.24064" lon="55.49543">
        <ele>689.88330078125</ele>
        <time>2012-12-26T06:33:06Z</time>
      </trkpt>
      <trkpt lat="-21.24065" lon="55.49544">
        <ele>689.88330078125</ele>
        <time>2012-12-26T06:33:07Z</time>
      </trkpt>
      <trkpt lat="-21.24066" lon="55.49554">
        <ele>692.28662109375</ele>
        <time>2012-12-26T06:33:22Z</time>
      </trkpt>
      <trkpt lat="-21.24053" lon="55.49564">
        <ele>694.20922851562</ele>
        <time>2012-12-26T06:33:41Z</time>
      </trkpt>
      <trkpt lat="-21.24055" lon="55.4957">
        <ele>694.20922851562</ele>
        <time>2012-12-26T06:33:50Z</time>
      </trkpt>
      <trkpt lat="-21.24056" lon="55.49582">
        <ele>695.65112304688</ele>
        <time>2012-12-26T06:34:03Z</time>
      </trkpt>
      <trkpt lat="-21.24057" lon="55.49587">
        <ele>696.61254882812</ele>
        <time>2012-12-26T06:34:21Z</time>
      </trkpt>
      <trkpt lat="-21.24055" lon="55.4959">
        <ele>696.61254882812</ele>
        <time>2012-12-26T06:34:25Z</time>
      </trkpt>
      <trkpt lat="-21.24052" lon="55.49608">
        <ele>697.57373046875</ele>
        <time>2012-12-26T06:34:40Z</time>
      </trkpt>
      <trkpt lat="-21.24048" lon="55.49617">
        <ele>697.57373046875</ele>
        <time>2012-12-26T06:34:47Z</time>
      </trkpt>
      <trkpt lat="-21.24045" lon="55.4964">
        <ele>698.53491210938</ele>
        <time>2012-12-26T06:35:00Z</time>
      </trkpt>
      <trkpt lat="-21.24041" lon="55.49663">
        <ele>698.53491210938</ele>
        <time>2012-12-26T06:35:17Z</time>
      </trkpt>
      <trkpt lat="-21.24038" lon="55.49675">
        <ele>699.49633789062</ele>
        <time>2012-12-26T06:35:29Z</time>
      </trkpt>
      <trkpt lat="-21.2404" lon="55.49693">
        <ele>700.9384765625</ele>
        <time>2012-12-26T06:35:39Z</time>
      </trkpt>
      <trkpt lat="-21.2406" lon="55.49716">
        <ele>700.9384765625</ele>
        <time>2012-12-26T06:35:59Z</time>
      </trkpt>
      <trkpt lat="-21.24056" lon="55.49728">
        <ele>703.82250976562</ele>
        <time>2012-12-26T06:36:12Z</time>
      </trkpt>
      <trkpt lat="-21.24053" lon="55.49736">
        <ele>704.78369140625</ele>
        <time>2012-12-26T06:36:17Z</time>
      </trkpt>
      <trkpt lat="-21.24053" lon="55.49743">
        <ele>706.70629882812</ele>
        <time>2012-12-26T06:36:21Z</time>
      </trkpt>
      <trkpt lat="-21.2405" lon="55.49751">
        <ele>708.1484375</ele>
        <time>2012-12-26T06:36:29Z</time>
      </trkpt>
      <trkpt lat="-21.2404" lon="55.49775">
        <ele>711.51293945312</ele>
        <time>2012-12-26T06:36:48Z</time>
      </trkpt>
      <trkpt lat="-21.24026" lon="55.49807">
        <ele>713.435546875</ele>
        <time>2012-12-26T06:37:13Z</time>
      </trkpt>
      <trkpt lat="-21.24025" lon="55.49811">
        <ele>714.39672851562</ele>
        <time>2012-12-26T06:37:25Z</time>
      </trkpt>
      <trkpt lat="-21.24018" lon="55.49822">
        <ele>716.31958007812</ele>
        <time>2012-12-26T06:37:56Z</time>
      </trkpt>
      <trkpt lat="-21.24014" lon="55.49829">
        <ele>716.31958007812</ele>
        <time>2012-12-26T06:38:02Z</time>
      </trkpt>
      <trkpt lat="-21.24013" lon="55.49832">
        <ele>716.80029296875</ele>
        <time>2012-12-26T06:38:04Z</time>
      </trkpt>
      <trkpt lat="-21.24012" lon="55.49847">
        <ele>720.6455078125</ele>
        <time>2012-12-26T06:38:16Z</time>
      </trkpt>
      <trkpt lat="-21.24008" lon="55.4986">
        <ele>724.01000976562</ele>
        <time>2012-12-26T06:38:26Z</time>
      </trkpt>
      <trkpt lat="-21.24005" lon="55.49866">
        <ele>725.9326171875</ele>
        <time>2012-12-26T06:38:31Z</time>
      </trkpt>
      <trkpt lat="-21.23997" lon="55.49877">
        <ele>728.81665039062</ele>
        <time>2012-12-26T06:38:41Z</time>
      </trkpt>
      <trkpt lat="-21.23993" lon="55.49881">
        <ele>730.7392578125</ele>
        <time>2012-12-26T06:38:46Z</time>
      </trkpt>
      <trkpt lat="-21.23987" lon="55.49885">
        <ele>733.142578125</ele>
        <time>2012-12-26T06:38:58Z</time>
      </trkpt>
      <trkpt lat="-21.23976" lon="55.49868">
        <ele>733.142578125</ele>
        <time>2012-12-26T06:39:16Z</time>
      </trkpt>
      <trkpt lat="-21.23975" lon="55.49849">
        <ele>731.70043945312</ele>
        <time>2012-12-26T06:39:30Z</time>
      </trkpt>
      <trkpt lat="-21.23968" lon="55.49841">
        <ele>730.25854492188</ele>
        <time>2012-12-26T06:39:40Z</time>
      </trkpt>
      <trkpt lat="-21.23969" lon="55.49836">
        <ele>730.25854492188</ele>
        <time>2012-12-26T06:39:43Z</time>
      </trkpt>
      <trkpt lat="-21.23968" lon="55.4983">
        <ele>730.25854492188</ele>
        <time>2012-12-26T06:39:46Z</time>
      </trkpt>
      <trkpt lat="-21.23946" lon="55.49815">
        <ele>727.85522460938</ele>
        <time>2012-12-26T06:40:01Z</time>
      </trkpt>
      <trkpt lat="-21.23945" lon="55.49815">
        <ele>727.85522460938</ele>
        <time>2012-12-26T06:40:02Z</time>
      </trkpt>
      <trkpt lat="-21.23942" lon="55.49815">
        <ele>726.89404296875</ele>
        <time>2012-12-26T06:40:05Z</time>
      </trkpt>
      <trkpt lat="-21.23926" lon="55.49807">
        <ele>727.37475585938</ele>
        <time>2012-12-26T06:40:20Z</time>
      </trkpt>
      <trkpt lat="-21.23917" lon="55.49805">
        <ele>727.85522460938</ele>
        <time>2012-12-26T06:40:31Z</time>
      </trkpt>
      <trkpt lat="-21.23905" lon="55.49808">
        <ele>728.81665039062</ele>
        <time>2012-12-26T06:40:40Z</time>
      </trkpt>
      <trkpt lat="-21.23885" lon="55.49816">
        <ele>730.7392578125</ele>
        <time>2012-12-26T06:40:56Z</time>
      </trkpt>
      <trkpt lat="-21.23865" lon="55.49824">
        <ele>734.10400390625</ele>
        <time>2012-12-26T06:41:11Z</time>
      </trkpt>
      <trkpt lat="-21.23855" lon="55.49826">
        <ele>735.0654296875</ele>
        <time>2012-12-26T06:41:18Z</time>
      </trkpt>
      <trkpt lat="-21.23823" lon="55.49829">
        <ele>737.46850585938</ele>
        <time>2012-12-26T06:41:41Z</time>
      </trkpt>
      <trkpt lat="-21.23804" lon="55.49847">
        <ele>739.87182617188</ele>
        <time>2012-12-26T06:42:00Z</time>
      </trkpt>
      <trkpt lat="-21.23801" lon="55.49852">
        <ele>740.8330078125</ele>
        <time>2012-12-26T06:42:05Z</time>
      </trkpt>
      <trkpt lat="-21.23789" lon="55.4987">
        <ele>742.755859375</ele>
        <time>2012-12-26T06:42:21Z</time>
      </trkpt>
      <trkpt lat="-21.23775" lon="55.4989">
        <ele>746.12036132812</ele>
        <time>2012-12-26T06:42:37Z</time>
      </trkpt>
      <trkpt lat="-21.23773" lon="55.4991">
        <ele>748.52368164062</ele>
        <time>2012-12-26T06:42:50Z</time>
      </trkpt>
      <trkpt lat="-21.23766" lon="55.49914">
        <ele>749.9658203125</ele>
        <time>2012-12-26T06:42:56Z</time>
      </trkpt>
      <trkpt lat="-21.23755" lon="55.49928">
        <ele>753.81103515625</ele>
        <time>2012-12-26T06:43:11Z</time>
      </trkpt>
      <trkpt lat="-21.23763" lon="55.49943">
        <ele>754.29174804688</ele>
        <time>2012-12-26T06:43:26Z</time>
      </trkpt>
      <trkpt lat="-21.23755" lon="55.4996">
        <ele>756.21411132812</ele>
        <time>2012-12-26T06:43:41Z</time>
      </trkpt>
      <trkpt lat="-21.2373" lon="55.49959">
        <ele>759.57885742188</ele>
        <time>2012-12-26T06:43:57Z</time>
      </trkpt>
      <trkpt lat="-21.23711" lon="55.49954">
        <ele>761.02075195312</ele>
        <time>2012-12-26T06:44:11Z</time>
      </trkpt>
      <trkpt lat="-21.23681" lon="55.49949">
        <ele>763.90454101562</ele>
        <time>2012-12-26T06:44:32Z</time>
      </trkpt>
    </trkseg>
  </trk>
</gpx>